<?xml version="1.0" encoding="UTF-8" standalone="no" ?>
<gpx xmlns="http://www.topografix.com/GPX/1/1" xmlns:xsi="http://www.w3.org/2001/XMLSchema-instance" xsi:schemaLocation="http://www.topografix.com/GPX/1/1 http://www.topografix.com/GPX/1/1/gpx.xsd" version="1.1" creator="VisuGPX - https://www.visugpx.com">
  <metadata>
    <name>83-D-Mentone</name>
    <desc><![CDATA[83-D-Mentone : de Mentone vers Salernes]]></desc>
  </metadata>
  <trk>
    <name><![CDATA[2017-01-29-D-mentone]]></name>
    <trkseg>
      <trkpt lat="43.52224" lon="6.28197">
        <ele>253</ele>
        <time>2017-01-29T08:31:29Z</time>
      </trkpt>
      <trkpt lat="43.52232" lon="6.28202">
        <ele>253</ele>
        <time>2017-01-29T08:31:38Z</time>
      </trkpt>
      <trkpt lat="43.52241" lon="6.28198">
        <ele>253</ele>
        <time>2017-01-29T08:31:49Z</time>
      </trkpt>
      <trkpt lat="43.5225" lon="6.28195">
        <ele>253</ele>
        <time>2017-01-29T08:32:16Z</time>
      </trkpt>
      <trkpt lat="43.52259" lon="6.28196">
        <ele>253.2</ele>
        <time>2017-01-29T08:32:31Z</time>
      </trkpt>
      <trkpt lat="43.52269" lon="6.28192">
        <ele>253.6</ele>
        <time>2017-01-29T08:32:38Z</time>
      </trkpt>
      <trkpt lat="43.52279" lon="6.28189">
        <ele>254.2</ele>
        <time>2017-01-29T08:32:45Z</time>
      </trkpt>
      <trkpt lat="43.52288" lon="6.28186">
        <ele>254.7</ele>
        <time>2017-01-29T08:32:52Z</time>
      </trkpt>
      <trkpt lat="43.52298" lon="6.28183">
        <ele>255.5</ele>
        <time>2017-01-29T08:33:01Z</time>
      </trkpt>
      <trkpt lat="43.52306" lon="6.28177">
        <ele>256</ele>
        <time>2017-01-29T08:33:09Z</time>
      </trkpt>
      <trkpt lat="43.52316" lon="6.28172">
        <ele>256.4</ele>
        <time>2017-01-29T08:33:17Z</time>
      </trkpt>
      <trkpt lat="43.52325" lon="6.28168">
        <ele>256.7</ele>
        <time>2017-01-29T08:33:26Z</time>
      </trkpt>
      <trkpt lat="43.52334" lon="6.28164">
        <ele>257.1</ele>
        <time>2017-01-29T08:33:33Z</time>
      </trkpt>
      <trkpt lat="43.52343" lon="6.28159">
        <ele>257.7</ele>
        <time>2017-01-29T08:33:44Z</time>
      </trkpt>
      <trkpt lat="43.52352" lon="6.28156">
        <ele>258</ele>
        <time>2017-01-29T08:33:51Z</time>
      </trkpt>
      <trkpt lat="43.52361" lon="6.28151">
        <ele>258.6</ele>
        <time>2017-01-29T08:33:59Z</time>
      </trkpt>
      <trkpt lat="43.5237" lon="6.28147">
        <ele>259.1</ele>
        <time>2017-01-29T08:34:07Z</time>
      </trkpt>
      <trkpt lat="43.52379" lon="6.28142">
        <ele>259.3</ele>
        <time>2017-01-29T08:34:14Z</time>
      </trkpt>
      <trkpt lat="43.52387" lon="6.28135">
        <ele>260.1</ele>
        <time>2017-01-29T08:34:32Z</time>
      </trkpt>
      <trkpt lat="43.52397" lon="6.28136">
        <ele>260.4</ele>
        <time>2017-01-29T08:34:41Z</time>
      </trkpt>
      <trkpt lat="43.52406" lon="6.28134">
        <ele>260.7</ele>
        <time>2017-01-29T08:34:47Z</time>
      </trkpt>
      <trkpt lat="43.52415" lon="6.28131">
        <ele>261.4</ele>
        <time>2017-01-29T08:34:57Z</time>
      </trkpt>
      <trkpt lat="43.52425" lon="6.28128">
        <ele>261.9</ele>
        <time>2017-01-29T08:35:04Z</time>
      </trkpt>
      <trkpt lat="43.52434" lon="6.28123">
        <ele>262.4</ele>
        <time>2017-01-29T08:35:12Z</time>
      </trkpt>
      <trkpt lat="43.52442" lon="6.28116">
        <ele>263.2</ele>
        <time>2017-01-29T08:35:20Z</time>
      </trkpt>
      <trkpt lat="43.52452" lon="6.28113">
        <ele>264</ele>
        <time>2017-01-29T08:35:32Z</time>
      </trkpt>
      <trkpt lat="43.52462" lon="6.28111">
        <ele>264.4</ele>
        <time>2017-01-29T08:35:42Z</time>
      </trkpt>
      <trkpt lat="43.52472" lon="6.28111">
        <ele>264.6</ele>
        <time>2017-01-29T08:35:46Z</time>
      </trkpt>
      <trkpt lat="43.52475" lon="6.28123">
        <ele>266.5</ele>
        <time>2017-01-29T08:36:15Z</time>
      </trkpt>
      <trkpt lat="43.52484" lon="6.2813">
        <ele>268.4</ele>
        <time>2017-01-29T08:36:40Z</time>
      </trkpt>
      <trkpt lat="43.52489" lon="6.28141">
        <ele>271.8</ele>
        <time>2017-01-29T08:37:18Z</time>
      </trkpt>
      <trkpt lat="43.52496" lon="6.28149">
        <ele>272.6</ele>
        <time>2017-01-29T08:37:27Z</time>
      </trkpt>
      <trkpt lat="43.52503" lon="6.28157">
        <ele>274.6</ele>
        <time>2017-01-29T08:37:41Z</time>
      </trkpt>
      <trkpt lat="43.52503" lon="6.2817">
        <ele>276.5</ele>
        <time>2017-01-29T08:37:53Z</time>
      </trkpt>
      <trkpt lat="43.52504" lon="6.28183">
        <ele>278.6</ele>
        <time>2017-01-29T08:38:06Z</time>
      </trkpt>
      <trkpt lat="43.52503" lon="6.28196">
        <ele>280.3</ele>
        <time>2017-01-29T08:38:17Z</time>
      </trkpt>
      <trkpt lat="43.525" lon="6.28207">
        <ele>281.7</ele>
        <time>2017-01-29T08:38:29Z</time>
      </trkpt>
      <trkpt lat="43.52501" lon="6.2822">
        <ele>282.8</ele>
        <time>2017-01-29T08:38:39Z</time>
      </trkpt>
      <trkpt lat="43.52503" lon="6.28233">
        <ele>283.5</ele>
        <time>2017-01-29T08:38:48Z</time>
      </trkpt>
      <trkpt lat="43.52505" lon="6.28246">
        <ele>284</ele>
        <time>2017-01-29T08:38:56Z</time>
      </trkpt>
      <trkpt lat="43.52509" lon="6.28258">
        <ele>284.5</ele>
        <time>2017-01-29T08:39:07Z</time>
      </trkpt>
      <trkpt lat="43.52512" lon="6.2827">
        <ele>284.8</ele>
        <time>2017-01-29T08:39:18Z</time>
      </trkpt>
      <trkpt lat="43.52519" lon="6.28278">
        <ele>284.9</ele>
        <time>2017-01-29T08:39:28Z</time>
      </trkpt>
      <trkpt lat="43.52519" lon="6.28291">
        <ele>285</ele>
        <time>2017-01-29T08:39:41Z</time>
      </trkpt>
      <trkpt lat="43.52522" lon="6.28304">
        <ele>284.9</ele>
        <time>2017-01-29T08:39:52Z</time>
      </trkpt>
      <trkpt lat="43.52526" lon="6.28316">
        <ele>284.9</ele>
        <time>2017-01-29T08:40:08Z</time>
      </trkpt>
      <trkpt lat="43.52535" lon="6.2832">
        <ele>284.9</ele>
        <time>2017-01-29T08:40:16Z</time>
      </trkpt>
      <trkpt lat="43.52542" lon="6.28327">
        <ele>284.9</ele>
        <time>2017-01-29T08:40:22Z</time>
      </trkpt>
      <trkpt lat="43.52547" lon="6.2834">
        <ele>285</ele>
        <time>2017-01-29T08:40:29Z</time>
      </trkpt>
      <trkpt lat="43.52547" lon="6.28353">
        <ele>285.2</ele>
        <time>2017-01-29T08:40:36Z</time>
      </trkpt>
      <trkpt lat="43.52553" lon="6.28362">
        <ele>285.4</ele>
        <time>2017-01-29T08:40:45Z</time>
      </trkpt>
      <trkpt lat="43.5256" lon="6.28372">
        <ele>286.2</ele>
        <time>2017-01-29T08:40:57Z</time>
      </trkpt>
      <trkpt lat="43.52569" lon="6.28373">
        <ele>286.6</ele>
        <time>2017-01-29T08:41:05Z</time>
      </trkpt>
      <trkpt lat="43.52579" lon="6.28371">
        <ele>286.9</ele>
        <time>2017-01-29T08:41:12Z</time>
      </trkpt>
      <trkpt lat="43.52589" lon="6.2837">
        <ele>287.2</ele>
        <time>2017-01-29T08:41:19Z</time>
      </trkpt>
      <trkpt lat="43.52598" lon="6.28375">
        <ele>287.3</ele>
        <time>2017-01-29T08:41:27Z</time>
      </trkpt>
      <trkpt lat="43.52604" lon="6.28384">
        <ele>287.5</ele>
        <time>2017-01-29T08:41:38Z</time>
      </trkpt>
      <trkpt lat="43.52613" lon="6.2839">
        <ele>287.6</ele>
        <time>2017-01-29T08:41:48Z</time>
      </trkpt>
      <trkpt lat="43.52621" lon="6.28397">
        <ele>287.5</ele>
        <time>2017-01-29T08:41:55Z</time>
      </trkpt>
      <trkpt lat="43.52629" lon="6.28405">
        <ele>287.4</ele>
        <time>2017-01-29T08:42:04Z</time>
      </trkpt>
      <trkpt lat="43.52638" lon="6.28411">
        <ele>287.3</ele>
        <time>2017-01-29T08:42:11Z</time>
      </trkpt>
      <trkpt lat="43.52645" lon="6.2842">
        <ele>287.2</ele>
        <time>2017-01-29T08:42:20Z</time>
      </trkpt>
      <trkpt lat="43.52653" lon="6.28425">
        <ele>287.3</ele>
        <time>2017-01-29T08:42:28Z</time>
      </trkpt>
      <trkpt lat="43.52661" lon="6.28431">
        <ele>287.5</ele>
        <time>2017-01-29T08:42:39Z</time>
      </trkpt>
      <trkpt lat="43.52669" lon="6.28438">
        <ele>287.8</ele>
        <time>2017-01-29T08:42:48Z</time>
      </trkpt>
      <trkpt lat="43.52678" lon="6.28443">
        <ele>288</ele>
        <time>2017-01-29T08:42:55Z</time>
      </trkpt>
      <trkpt lat="43.52687" lon="6.28449">
        <ele>288.5</ele>
        <time>2017-01-29T08:43:05Z</time>
      </trkpt>
      <trkpt lat="43.52694" lon="6.28458">
        <ele>288.8</ele>
        <time>2017-01-29T08:43:14Z</time>
      </trkpt>
      <trkpt lat="43.52702" lon="6.28464">
        <ele>289</ele>
        <time>2017-01-29T08:43:22Z</time>
      </trkpt>
      <trkpt lat="43.52711" lon="6.28471">
        <ele>289.4</ele>
        <time>2017-01-29T08:43:30Z</time>
      </trkpt>
      <trkpt lat="43.5272" lon="6.28476">
        <ele>289.7</ele>
        <time>2017-01-29T08:43:38Z</time>
      </trkpt>
      <trkpt lat="43.52729" lon="6.28482">
        <ele>290</ele>
        <time>2017-01-29T08:43:46Z</time>
      </trkpt>
      <trkpt lat="43.52737" lon="6.28488">
        <ele>290.4</ele>
        <time>2017-01-29T08:43:55Z</time>
      </trkpt>
      <trkpt lat="43.52744" lon="6.28496">
        <ele>290.7</ele>
        <time>2017-01-29T08:44:03Z</time>
      </trkpt>
      <trkpt lat="43.52752" lon="6.28503">
        <ele>291</ele>
        <time>2017-01-29T08:44:11Z</time>
      </trkpt>
      <trkpt lat="43.5276" lon="6.28509">
        <ele>291.4</ele>
        <time>2017-01-29T08:44:21Z</time>
      </trkpt>
      <trkpt lat="43.52768" lon="6.28515">
        <ele>291.6</ele>
        <time>2017-01-29T08:44:29Z</time>
      </trkpt>
      <trkpt lat="43.52776" lon="6.28522">
        <ele>291.9</ele>
        <time>2017-01-29T08:44:37Z</time>
      </trkpt>
      <trkpt lat="43.52783" lon="6.28529">
        <ele>292.2</ele>
        <time>2017-01-29T08:44:45Z</time>
      </trkpt>
      <trkpt lat="43.52791" lon="6.28536">
        <ele>292.7</ele>
        <time>2017-01-29T08:44:55Z</time>
      </trkpt>
      <trkpt lat="43.52797" lon="6.28545">
        <ele>293.4</ele>
        <time>2017-01-29T08:45:05Z</time>
      </trkpt>
      <trkpt lat="43.52802" lon="6.28557">
        <ele>293.8</ele>
        <time>2017-01-29T08:45:13Z</time>
      </trkpt>
      <trkpt lat="43.52806" lon="6.28569">
        <ele>294.4</ele>
        <time>2017-01-29T08:45:25Z</time>
      </trkpt>
      <trkpt lat="43.52813" lon="6.28578">
        <ele>295</ele>
        <time>2017-01-29T08:45:34Z</time>
      </trkpt>
      <trkpt lat="43.52821" lon="6.28586">
        <ele>295.4</ele>
        <time>2017-01-29T08:45:41Z</time>
      </trkpt>
      <trkpt lat="43.5283" lon="6.28593">
        <ele>296.1</ele>
        <time>2017-01-29T08:45:50Z</time>
      </trkpt>
      <trkpt lat="43.5284" lon="6.28596">
        <ele>297</ele>
        <time>2017-01-29T08:46:00Z</time>
      </trkpt>
      <trkpt lat="43.52849" lon="6.286">
        <ele>297.5</ele>
        <time>2017-01-29T08:46:08Z</time>
      </trkpt>
      <trkpt lat="43.52858" lon="6.28602">
        <ele>298</ele>
        <time>2017-01-29T08:46:14Z</time>
      </trkpt>
      <trkpt lat="43.52867" lon="6.28607">
        <ele>298.8</ele>
        <time>2017-01-29T08:46:23Z</time>
      </trkpt>
      <trkpt lat="43.52876" lon="6.28609">
        <ele>299.3</ele>
        <time>2017-01-29T08:46:31Z</time>
      </trkpt>
      <trkpt lat="43.52885" lon="6.28614">
        <ele>300</ele>
        <time>2017-01-29T08:46:41Z</time>
      </trkpt>
      <trkpt lat="43.52894" lon="6.28615">
        <ele>300.4</ele>
        <time>2017-01-29T08:46:47Z</time>
      </trkpt>
      <trkpt lat="43.52903" lon="6.28615">
        <ele>300.9</ele>
        <time>2017-01-29T08:46:54Z</time>
      </trkpt>
      <trkpt lat="43.52913" lon="6.28614">
        <ele>301.5</ele>
        <time>2017-01-29T08:47:01Z</time>
      </trkpt>
      <trkpt lat="43.52922" lon="6.28612">
        <ele>302.2</ele>
        <time>2017-01-29T08:47:09Z</time>
      </trkpt>
      <trkpt lat="43.52931" lon="6.28609">
        <ele>302.8</ele>
        <time>2017-01-29T08:47:20Z</time>
      </trkpt>
      <trkpt lat="43.5294" lon="6.28605">
        <ele>303.6</ele>
        <time>2017-01-29T08:47:30Z</time>
      </trkpt>
      <trkpt lat="43.5295" lon="6.28603">
        <ele>304</ele>
        <time>2017-01-29T08:47:38Z</time>
      </trkpt>
      <trkpt lat="43.5296" lon="6.28602">
        <ele>304.3</ele>
        <time>2017-01-29T08:47:46Z</time>
      </trkpt>
      <trkpt lat="43.52971" lon="6.28604">
        <ele>304.6</ele>
        <time>2017-01-29T08:47:54Z</time>
      </trkpt>
      <trkpt lat="43.52981" lon="6.28604">
        <ele>305.1</ele>
        <time>2017-01-29T08:48:07Z</time>
      </trkpt>
      <trkpt lat="43.5299" lon="6.28603">
        <ele>305.7</ele>
        <time>2017-01-29T08:48:15Z</time>
      </trkpt>
      <trkpt lat="43.53" lon="6.28606">
        <ele>306.3</ele>
        <time>2017-01-29T08:48:27Z</time>
      </trkpt>
      <trkpt lat="43.53009" lon="6.2861">
        <ele>306.6</ele>
        <time>2017-01-29T08:48:37Z</time>
      </trkpt>
      <trkpt lat="43.53018" lon="6.28616">
        <ele>306.8</ele>
        <time>2017-01-29T08:48:44Z</time>
      </trkpt>
      <trkpt lat="43.53028" lon="6.28621">
        <ele>307.1</ele>
        <time>2017-01-29T08:48:50Z</time>
      </trkpt>
      <trkpt lat="43.53036" lon="6.28627">
        <ele>307.4</ele>
        <time>2017-01-29T08:48:58Z</time>
      </trkpt>
      <trkpt lat="43.53046" lon="6.28631">
        <ele>307.6</ele>
        <time>2017-01-29T08:49:06Z</time>
      </trkpt>
      <trkpt lat="43.53054" lon="6.28637">
        <ele>307.6</ele>
        <time>2017-01-29T08:49:14Z</time>
      </trkpt>
      <trkpt lat="43.53061" lon="6.28644">
        <ele>307.6</ele>
        <time>2017-01-29T08:49:24Z</time>
      </trkpt>
      <trkpt lat="43.5307" lon="6.28651">
        <ele>307.9</ele>
        <time>2017-01-29T08:49:33Z</time>
      </trkpt>
      <trkpt lat="43.5308" lon="6.28654">
        <ele>308.1</ele>
        <time>2017-01-29T08:49:42Z</time>
      </trkpt>
      <trkpt lat="43.5309" lon="6.28655">
        <ele>308.5</ele>
        <time>2017-01-29T08:49:49Z</time>
      </trkpt>
      <trkpt lat="43.53099" lon="6.28657">
        <ele>309.3</ele>
        <time>2017-01-29T08:49:59Z</time>
      </trkpt>
      <trkpt lat="43.53109" lon="6.28656">
        <ele>310</ele>
        <time>2017-01-29T08:50:07Z</time>
      </trkpt>
      <trkpt lat="43.5312" lon="6.28655">
        <ele>311</ele>
        <time>2017-01-29T08:50:17Z</time>
      </trkpt>
      <trkpt lat="43.53129" lon="6.28655">
        <ele>311.6</ele>
        <time>2017-01-29T08:50:27Z</time>
      </trkpt>
      <trkpt lat="43.53138" lon="6.28658">
        <ele>312</ele>
        <time>2017-01-29T08:50:35Z</time>
      </trkpt>
      <trkpt lat="43.53147" lon="6.2866">
        <ele>312.4</ele>
        <time>2017-01-29T08:50:42Z</time>
      </trkpt>
      <trkpt lat="43.53156" lon="6.28664">
        <ele>312.8</ele>
        <time>2017-01-29T08:50:51Z</time>
      </trkpt>
      <trkpt lat="43.53165" lon="6.2867">
        <ele>313.6</ele>
        <time>2017-01-29T08:51:01Z</time>
      </trkpt>
      <trkpt lat="43.53174" lon="6.28676">
        <ele>314.1</ele>
        <time>2017-01-29T08:51:09Z</time>
      </trkpt>
      <trkpt lat="43.53182" lon="6.28681">
        <ele>314.7</ele>
        <time>2017-01-29T08:51:19Z</time>
      </trkpt>
      <trkpt lat="43.53192" lon="6.28685">
        <ele>315.5</ele>
        <time>2017-01-29T08:51:28Z</time>
      </trkpt>
      <trkpt lat="43.53201" lon="6.28688">
        <ele>316.3</ele>
        <time>2017-01-29T08:51:38Z</time>
      </trkpt>
      <trkpt lat="43.5321" lon="6.2869">
        <ele>316.9</ele>
        <time>2017-01-29T08:51:47Z</time>
      </trkpt>
      <trkpt lat="43.53219" lon="6.28696">
        <ele>317.6</ele>
        <time>2017-01-29T08:51:55Z</time>
      </trkpt>
      <trkpt lat="43.53227" lon="6.28701">
        <ele>318.2</ele>
        <time>2017-01-29T08:52:04Z</time>
      </trkpt>
      <trkpt lat="43.53236" lon="6.28707">
        <ele>318.6</ele>
        <time>2017-01-29T08:52:12Z</time>
      </trkpt>
      <trkpt lat="43.53244" lon="6.28713">
        <ele>319</ele>
        <time>2017-01-29T08:52:21Z</time>
      </trkpt>
      <trkpt lat="43.53253" lon="6.28719">
        <ele>319.3</ele>
        <time>2017-01-29T08:52:30Z</time>
      </trkpt>
      <trkpt lat="43.53261" lon="6.28725">
        <ele>319.7</ele>
        <time>2017-01-29T08:52:40Z</time>
      </trkpt>
      <trkpt lat="43.53269" lon="6.28732">
        <ele>319.9</ele>
        <time>2017-01-29T08:52:50Z</time>
      </trkpt>
      <trkpt lat="43.53279" lon="6.28736">
        <ele>320.1</ele>
        <time>2017-01-29T08:53:00Z</time>
      </trkpt>
      <trkpt lat="43.53288" lon="6.28736">
        <ele>320.4</ele>
        <time>2017-01-29T08:53:09Z</time>
      </trkpt>
      <trkpt lat="43.53298" lon="6.28733">
        <ele>320.7</ele>
        <time>2017-01-29T08:53:18Z</time>
      </trkpt>
      <trkpt lat="43.53308" lon="6.2873">
        <ele>321.1</ele>
        <time>2017-01-29T08:53:26Z</time>
      </trkpt>
      <trkpt lat="43.53316" lon="6.28725">
        <ele>321.7</ele>
        <time>2017-01-29T08:53:36Z</time>
      </trkpt>
      <trkpt lat="43.53326" lon="6.2872">
        <ele>322.4</ele>
        <time>2017-01-29T08:53:45Z</time>
      </trkpt>
      <trkpt lat="43.53334" lon="6.28715">
        <ele>323.2</ele>
        <time>2017-01-29T08:53:55Z</time>
      </trkpt>
      <trkpt lat="43.53343" lon="6.28709">
        <ele>323.9</ele>
        <time>2017-01-29T08:54:06Z</time>
      </trkpt>
      <trkpt lat="43.53352" lon="6.28704">
        <ele>324.4</ele>
        <time>2017-01-29T08:54:14Z</time>
      </trkpt>
      <trkpt lat="43.53361" lon="6.287">
        <ele>324.9</ele>
        <time>2017-01-29T08:54:23Z</time>
      </trkpt>
      <trkpt lat="43.5337" lon="6.28696">
        <ele>325.6</ele>
        <time>2017-01-29T08:54:32Z</time>
      </trkpt>
      <trkpt lat="43.53379" lon="6.28692">
        <ele>326.2</ele>
        <time>2017-01-29T08:54:43Z</time>
      </trkpt>
      <trkpt lat="43.53389" lon="6.28688">
        <ele>326.9</ele>
        <time>2017-01-29T08:54:53Z</time>
      </trkpt>
      <trkpt lat="43.53397" lon="6.28682">
        <ele>327.7</ele>
        <time>2017-01-29T08:55:02Z</time>
      </trkpt>
      <trkpt lat="43.53405" lon="6.28676">
        <ele>328.6</ele>
        <time>2017-01-29T08:55:13Z</time>
      </trkpt>
      <trkpt lat="43.53414" lon="6.2867">
        <ele>329.1</ele>
        <time>2017-01-29T08:55:21Z</time>
      </trkpt>
      <trkpt lat="43.53423" lon="6.28665">
        <ele>329.8</ele>
        <time>2017-01-29T08:55:29Z</time>
      </trkpt>
      <trkpt lat="43.53433" lon="6.28663">
        <ele>330.9</ele>
        <time>2017-01-29T08:55:44Z</time>
      </trkpt>
      <trkpt lat="43.53442" lon="6.2866">
        <ele>332.2</ele>
        <time>2017-01-29T08:55:56Z</time>
      </trkpt>
      <trkpt lat="43.53451" lon="6.28656">
        <ele>333</ele>
        <time>2017-01-29T08:56:04Z</time>
      </trkpt>
      <trkpt lat="43.5346" lon="6.28649">
        <ele>334.3</ele>
        <time>2017-01-29T08:56:15Z</time>
      </trkpt>
      <trkpt lat="43.53469" lon="6.28643">
        <ele>335.5</ele>
        <time>2017-01-29T08:56:26Z</time>
      </trkpt>
      <trkpt lat="43.53478" lon="6.28638">
        <ele>336.7</ele>
        <time>2017-01-29T08:56:36Z</time>
      </trkpt>
      <trkpt lat="43.53487" lon="6.28635">
        <ele>337.9</ele>
        <time>2017-01-29T08:56:47Z</time>
      </trkpt>
      <trkpt lat="43.53496" lon="6.28634">
        <ele>338.9</ele>
        <time>2017-01-29T08:56:56Z</time>
      </trkpt>
      <trkpt lat="43.53505" lon="6.28639">
        <ele>340.3</ele>
        <time>2017-01-29T08:57:11Z</time>
      </trkpt>
      <trkpt lat="43.53511" lon="6.28648">
        <ele>341.5</ele>
        <time>2017-01-29T08:57:22Z</time>
      </trkpt>
      <trkpt lat="43.53519" lon="6.28654">
        <ele>342.5</ele>
        <time>2017-01-29T08:57:31Z</time>
      </trkpt>
      <trkpt lat="43.53527" lon="6.28662">
        <ele>343.5</ele>
        <time>2017-01-29T08:57:41Z</time>
      </trkpt>
      <trkpt lat="43.53534" lon="6.2867">
        <ele>344.6</ele>
        <time>2017-01-29T08:57:50Z</time>
      </trkpt>
      <trkpt lat="43.53542" lon="6.28679">
        <ele>345.8</ele>
        <time>2017-01-29T08:58:00Z</time>
      </trkpt>
      <trkpt lat="43.5355" lon="6.28686">
        <ele>347</ele>
        <time>2017-01-29T08:58:10Z</time>
      </trkpt>
      <trkpt lat="43.53558" lon="6.28693">
        <ele>348.4</ele>
        <time>2017-01-29T08:58:23Z</time>
      </trkpt>
      <trkpt lat="43.53564" lon="6.28684">
        <ele>349.5</ele>
        <time>2017-01-29T08:58:33Z</time>
      </trkpt>
      <trkpt lat="43.53572" lon="6.28676">
        <ele>350.3</ele>
        <time>2017-01-29T08:58:42Z</time>
      </trkpt>
      <trkpt lat="43.53579" lon="6.28667">
        <ele>351</ele>
        <time>2017-01-29T08:58:50Z</time>
      </trkpt>
      <trkpt lat="43.53586" lon="6.28659">
        <ele>351.6</ele>
        <time>2017-01-29T08:58:58Z</time>
      </trkpt>
      <trkpt lat="43.53594" lon="6.28652">
        <ele>351.9</ele>
        <time>2017-01-29T08:59:06Z</time>
      </trkpt>
      <trkpt lat="43.53585" lon="6.28651">
        <ele>353</ele>
        <time>2017-01-29T08:59:34Z</time>
      </trkpt>
      <trkpt lat="43.53577" lon="6.28658">
        <ele>353</ele>
        <time>2017-01-29T08:59:43Z</time>
      </trkpt>
      <trkpt lat="43.53569" lon="6.28666">
        <ele>353</ele>
        <time>2017-01-29T08:59:51Z</time>
      </trkpt>
      <trkpt lat="43.53562" lon="6.28677">
        <ele>352.6</ele>
        <time>2017-01-29T08:59:59Z</time>
      </trkpt>
      <trkpt lat="43.53559" lon="6.28689">
        <ele>352.2</ele>
        <time>2017-01-29T09:00:06Z</time>
      </trkpt>
      <trkpt lat="43.53566" lon="6.287">
        <ele>351.7</ele>
        <time>2017-01-29T09:00:23Z</time>
      </trkpt>
      <trkpt lat="43.53568" lon="6.28712">
        <ele>352</ele>
        <time>2017-01-29T09:00:31Z</time>
      </trkpt>
      <trkpt lat="43.53571" lon="6.28724">
        <ele>352.7</ele>
        <time>2017-01-29T09:00:39Z</time>
      </trkpt>
      <trkpt lat="43.53575" lon="6.28737">
        <ele>353.4</ele>
        <time>2017-01-29T09:00:49Z</time>
      </trkpt>
      <trkpt lat="43.53581" lon="6.28747">
        <ele>354.4</ele>
        <time>2017-01-29T09:00:58Z</time>
      </trkpt>
      <trkpt lat="43.53587" lon="6.28758">
        <ele>355.4</ele>
        <time>2017-01-29T09:01:07Z</time>
      </trkpt>
      <trkpt lat="43.53591" lon="6.2877">
        <ele>356.8</ele>
        <time>2017-01-29T09:01:24Z</time>
      </trkpt>
      <trkpt lat="43.53597" lon="6.28781">
        <ele>357.1</ele>
        <time>2017-01-29T09:01:32Z</time>
      </trkpt>
      <trkpt lat="43.53601" lon="6.28793">
        <ele>357.3</ele>
        <time>2017-01-29T09:01:40Z</time>
      </trkpt>
      <trkpt lat="43.53605" lon="6.28805">
        <ele>357.5</ele>
        <time>2017-01-29T09:01:48Z</time>
      </trkpt>
      <trkpt lat="43.53611" lon="6.28817">
        <ele>357.6</ele>
        <time>2017-01-29T09:01:55Z</time>
      </trkpt>
      <trkpt lat="43.53616" lon="6.28827">
        <ele>357.8</ele>
        <time>2017-01-29T09:02:03Z</time>
      </trkpt>
      <trkpt lat="43.53621" lon="6.28839">
        <ele>358.2</ele>
        <time>2017-01-29T09:02:13Z</time>
      </trkpt>
      <trkpt lat="43.53624" lon="6.28851">
        <ele>358.7</ele>
        <time>2017-01-29T09:02:21Z</time>
      </trkpt>
      <trkpt lat="43.53626" lon="6.28864">
        <ele>359.4</ele>
        <time>2017-01-29T09:02:31Z</time>
      </trkpt>
      <trkpt lat="43.53631" lon="6.28876">
        <ele>360.2</ele>
        <time>2017-01-29T09:02:41Z</time>
      </trkpt>
      <trkpt lat="43.53635" lon="6.28887">
        <ele>361</ele>
        <time>2017-01-29T09:02:50Z</time>
      </trkpt>
      <trkpt lat="43.5364" lon="6.28898">
        <ele>361.9</ele>
        <time>2017-01-29T09:02:59Z</time>
      </trkpt>
      <trkpt lat="43.53646" lon="6.28907">
        <ele>363.6</ele>
        <time>2017-01-29T09:03:11Z</time>
      </trkpt>
      <trkpt lat="43.53652" lon="6.28918">
        <ele>364.6</ele>
        <time>2017-01-29T09:03:22Z</time>
      </trkpt>
      <trkpt lat="43.5366" lon="6.28924">
        <ele>366.6</ele>
        <time>2017-01-29T09:03:50Z</time>
      </trkpt>
      <trkpt lat="43.53669" lon="6.28925">
        <ele>367.2</ele>
        <time>2017-01-29T09:07:35Z</time>
      </trkpt>
      <trkpt lat="43.5366" lon="6.28921">
        <ele>367</ele>
        <time>2017-01-29T09:08:34Z</time>
      </trkpt>
      <trkpt lat="43.53667" lon="6.2893">
        <ele>366.8</ele>
        <time>2017-01-29T09:08:55Z</time>
      </trkpt>
      <trkpt lat="43.53675" lon="6.28936">
        <ele>367.7</ele>
        <time>2017-01-29T09:09:11Z</time>
      </trkpt>
      <trkpt lat="43.53685" lon="6.28935">
        <ele>369.3</ele>
        <time>2017-01-29T09:09:27Z</time>
      </trkpt>
      <trkpt lat="43.53691" lon="6.28924">
        <ele>370.3</ele>
        <time>2017-01-29T09:09:38Z</time>
      </trkpt>
      <trkpt lat="43.53696" lon="6.28913">
        <ele>371.4</ele>
        <time>2017-01-29T09:09:48Z</time>
      </trkpt>
      <trkpt lat="43.53701" lon="6.28902">
        <ele>372.5</ele>
        <time>2017-01-29T09:09:58Z</time>
      </trkpt>
      <trkpt lat="43.53707" lon="6.28891">
        <ele>373.5</ele>
        <time>2017-01-29T09:10:08Z</time>
      </trkpt>
      <trkpt lat="43.53712" lon="6.28881">
        <ele>374.1</ele>
        <time>2017-01-29T09:10:17Z</time>
      </trkpt>
      <trkpt lat="43.53717" lon="6.2887">
        <ele>374.5</ele>
        <time>2017-01-29T09:10:25Z</time>
      </trkpt>
      <trkpt lat="43.53722" lon="6.28857">
        <ele>374.8</ele>
        <time>2017-01-29T09:10:34Z</time>
      </trkpt>
      <trkpt lat="43.53726" lon="6.28846">
        <ele>374.9</ele>
        <time>2017-01-29T09:10:43Z</time>
      </trkpt>
      <trkpt lat="43.53727" lon="6.28834">
        <ele>375</ele>
        <time>2017-01-29T09:10:55Z</time>
      </trkpt>
      <trkpt lat="43.53731" lon="6.28823">
        <ele>375.3</ele>
        <time>2017-01-29T09:11:02Z</time>
      </trkpt>
      <trkpt lat="43.53736" lon="6.28811">
        <ele>375.5</ele>
        <time>2017-01-29T09:11:09Z</time>
      </trkpt>
      <trkpt lat="43.53738" lon="6.28798">
        <ele>375.6</ele>
        <time>2017-01-29T09:11:17Z</time>
      </trkpt>
      <trkpt lat="43.53746" lon="6.28789">
        <ele>375.7</ele>
        <time>2017-01-29T09:11:26Z</time>
      </trkpt>
      <trkpt lat="43.53754" lon="6.28783">
        <ele>375.7</ele>
        <time>2017-01-29T09:11:33Z</time>
      </trkpt>
      <trkpt lat="43.53763" lon="6.2878">
        <ele>375.9</ele>
        <time>2017-01-29T09:11:46Z</time>
      </trkpt>
      <trkpt lat="43.53773" lon="6.2878">
        <ele>376.1</ele>
        <time>2017-01-29T09:11:59Z</time>
      </trkpt>
      <trkpt lat="43.53783" lon="6.28783">
        <ele>376.6</ele>
        <time>2017-01-29T09:12:12Z</time>
      </trkpt>
      <trkpt lat="43.53793" lon="6.28785">
        <ele>376.9</ele>
        <time>2017-01-29T09:12:19Z</time>
      </trkpt>
      <trkpt lat="43.53803" lon="6.28787">
        <ele>377.2</ele>
        <time>2017-01-29T09:12:27Z</time>
      </trkpt>
      <trkpt lat="43.53812" lon="6.2879">
        <ele>377.7</ele>
        <time>2017-01-29T09:12:37Z</time>
      </trkpt>
      <trkpt lat="43.53821" lon="6.28795">
        <ele>378.7</ele>
        <time>2017-01-29T09:12:48Z</time>
      </trkpt>
      <trkpt lat="43.53829" lon="6.28802">
        <ele>379.3</ele>
        <time>2017-01-29T09:12:59Z</time>
      </trkpt>
      <trkpt lat="43.53838" lon="6.28804">
        <ele>379.8</ele>
        <time>2017-01-29T09:13:08Z</time>
      </trkpt>
      <trkpt lat="43.53848" lon="6.28804">
        <ele>380.2</ele>
        <time>2017-01-29T09:13:17Z</time>
      </trkpt>
      <trkpt lat="43.53858" lon="6.28806">
        <ele>380.5</ele>
        <time>2017-01-29T09:13:25Z</time>
      </trkpt>
      <trkpt lat="43.53867" lon="6.28804">
        <ele>380.7</ele>
        <time>2017-01-29T09:13:36Z</time>
      </trkpt>
      <trkpt lat="43.53877" lon="6.28804">
        <ele>380.9</ele>
        <time>2017-01-29T09:13:45Z</time>
      </trkpt>
      <trkpt lat="43.53887" lon="6.28803">
        <ele>381.1</ele>
        <time>2017-01-29T09:13:55Z</time>
      </trkpt>
      <trkpt lat="43.53896" lon="6.28799">
        <ele>381.3</ele>
        <time>2017-01-29T09:14:04Z</time>
      </trkpt>
      <trkpt lat="43.53905" lon="6.28795">
        <ele>381.4</ele>
        <time>2017-01-29T09:14:11Z</time>
      </trkpt>
      <trkpt lat="43.53913" lon="6.28788">
        <ele>381.9</ele>
        <time>2017-01-29T09:14:25Z</time>
      </trkpt>
      <trkpt lat="43.53923" lon="6.28784">
        <ele>382.5</ele>
        <time>2017-01-29T09:14:36Z</time>
      </trkpt>
      <trkpt lat="43.53933" lon="6.28784">
        <ele>382.8</ele>
        <time>2017-01-29T09:14:42Z</time>
      </trkpt>
      <trkpt lat="43.53943" lon="6.28784">
        <ele>383.1</ele>
        <time>2017-01-29T09:14:51Z</time>
      </trkpt>
      <trkpt lat="43.53952" lon="6.28781">
        <ele>383.2</ele>
        <time>2017-01-29T09:15:00Z</time>
      </trkpt>
      <trkpt lat="43.53961" lon="6.28775">
        <ele>383.2</ele>
        <time>2017-01-29T09:15:09Z</time>
      </trkpt>
      <trkpt lat="43.53971" lon="6.2877">
        <ele>383.5</ele>
        <time>2017-01-29T09:15:18Z</time>
      </trkpt>
      <trkpt lat="43.53979" lon="6.28763">
        <ele>383.9</ele>
        <time>2017-01-29T09:15:29Z</time>
      </trkpt>
      <trkpt lat="43.53988" lon="6.28758">
        <ele>384.4</ele>
        <time>2017-01-29T09:15:38Z</time>
      </trkpt>
      <trkpt lat="43.53996" lon="6.28749">
        <ele>384.7</ele>
        <time>2017-01-29T09:15:46Z</time>
      </trkpt>
      <trkpt lat="43.54003" lon="6.2874">
        <ele>385.6</ele>
        <time>2017-01-29T09:15:58Z</time>
      </trkpt>
      <trkpt lat="43.54009" lon="6.2873">
        <ele>386</ele>
        <time>2017-01-29T09:16:08Z</time>
      </trkpt>
      <trkpt lat="43.54015" lon="6.28719">
        <ele>386.7</ele>
        <time>2017-01-29T09:16:21Z</time>
      </trkpt>
      <trkpt lat="43.54017" lon="6.28707">
        <ele>387.1</ele>
        <time>2017-01-29T09:16:31Z</time>
      </trkpt>
      <trkpt lat="43.5402" lon="6.28695">
        <ele>387.7</ele>
        <time>2017-01-29T09:16:43Z</time>
      </trkpt>
      <trkpt lat="43.54023" lon="6.28683">
        <ele>388.4</ele>
        <time>2017-01-29T09:16:59Z</time>
      </trkpt>
      <trkpt lat="43.54027" lon="6.28671">
        <ele>388.9</ele>
        <time>2017-01-29T09:17:15Z</time>
      </trkpt>
      <trkpt lat="43.54026" lon="6.28658">
        <ele>390.2</ele>
        <time>2017-01-29T09:17:42Z</time>
      </trkpt>
      <trkpt lat="43.54035" lon="6.28657">
        <ele>391.2</ele>
        <time>2017-01-29T09:19:31Z</time>
      </trkpt>
      <trkpt lat="43.54043" lon="6.28654">
        <ele>391.3</ele>
        <time>2017-01-29T09:20:14Z</time>
      </trkpt>
      <trkpt lat="43.54051" lon="6.28663">
        <ele>391.6</ele>
        <time>2017-01-29T09:20:46Z</time>
      </trkpt>
      <trkpt lat="43.54058" lon="6.28671">
        <ele>392.4</ele>
        <time>2017-01-29T09:21:04Z</time>
      </trkpt>
      <trkpt lat="43.54066" lon="6.28677">
        <ele>393.7</ele>
        <time>2017-01-29T09:21:19Z</time>
      </trkpt>
      <trkpt lat="43.54075" lon="6.28677">
        <ele>395.2</ele>
        <time>2017-01-29T09:21:34Z</time>
      </trkpt>
      <trkpt lat="43.54084" lon="6.28676">
        <ele>395.9</ele>
        <time>2017-01-29T09:21:45Z</time>
      </trkpt>
      <trkpt lat="43.54092" lon="6.28673">
        <ele>396.7</ele>
        <time>2017-01-29T09:21:56Z</time>
      </trkpt>
      <trkpt lat="43.54102" lon="6.28672">
        <ele>397.7</ele>
        <time>2017-01-29T09:22:08Z</time>
      </trkpt>
      <trkpt lat="43.54111" lon="6.2867">
        <ele>398.6</ele>
        <time>2017-01-29T09:22:19Z</time>
      </trkpt>
      <trkpt lat="43.54121" lon="6.2867">
        <ele>400.1</ele>
        <time>2017-01-29T09:22:32Z</time>
      </trkpt>
      <trkpt lat="43.54129" lon="6.28665">
        <ele>401</ele>
        <time>2017-01-29T09:22:44Z</time>
      </trkpt>
      <trkpt lat="43.54139" lon="6.28659">
        <ele>402</ele>
        <time>2017-01-29T09:22:57Z</time>
      </trkpt>
      <trkpt lat="43.54147" lon="6.28654">
        <ele>403.2</ele>
        <time>2017-01-29T09:23:10Z</time>
      </trkpt>
      <trkpt lat="43.54154" lon="6.28645">
        <ele>403.7</ele>
        <time>2017-01-29T09:23:17Z</time>
      </trkpt>
      <trkpt lat="43.5416" lon="6.28635">
        <ele>404.3</ele>
        <time>2017-01-29T09:23:26Z</time>
      </trkpt>
      <trkpt lat="43.54165" lon="6.28624">
        <ele>405.1</ele>
        <time>2017-01-29T09:23:37Z</time>
      </trkpt>
      <trkpt lat="43.54169" lon="6.28612">
        <ele>405.7</ele>
        <time>2017-01-29T09:23:47Z</time>
      </trkpt>
      <trkpt lat="43.54173" lon="6.286">
        <ele>405.9</ele>
        <time>2017-01-29T09:23:56Z</time>
      </trkpt>
      <trkpt lat="43.54176" lon="6.28588">
        <ele>406.5</ele>
        <time>2017-01-29T09:24:07Z</time>
      </trkpt>
      <trkpt lat="43.54178" lon="6.28575">
        <ele>406.7</ele>
        <time>2017-01-29T09:24:16Z</time>
      </trkpt>
      <trkpt lat="43.5418" lon="6.28562">
        <ele>406.6</ele>
        <time>2017-01-29T09:24:29Z</time>
      </trkpt>
      <trkpt lat="43.54185" lon="6.28551">
        <ele>406.3</ele>
        <time>2017-01-29T09:24:38Z</time>
      </trkpt>
      <trkpt lat="43.5419" lon="6.2854">
        <ele>405.9</ele>
        <time>2017-01-29T09:24:48Z</time>
      </trkpt>
      <trkpt lat="43.54197" lon="6.28532">
        <ele>406</ele>
        <time>2017-01-29T09:24:57Z</time>
      </trkpt>
      <trkpt lat="43.54203" lon="6.28523">
        <ele>406.3</ele>
        <time>2017-01-29T09:25:07Z</time>
      </trkpt>
      <trkpt lat="43.5421" lon="6.28512">
        <ele>406.6</ele>
        <time>2017-01-29T09:25:20Z</time>
      </trkpt>
      <trkpt lat="43.54217" lon="6.28504">
        <ele>406.8</ele>
        <time>2017-01-29T09:25:31Z</time>
      </trkpt>
      <trkpt lat="43.54223" lon="6.28493">
        <ele>406.9</ele>
        <time>2017-01-29T09:25:39Z</time>
      </trkpt>
      <trkpt lat="43.54228" lon="6.28482">
        <ele>407.1</ele>
        <time>2017-01-29T09:25:51Z</time>
      </trkpt>
      <trkpt lat="43.54235" lon="6.28474">
        <ele>407.7</ele>
        <time>2017-01-29T09:26:00Z</time>
      </trkpt>
      <trkpt lat="43.54238" lon="6.28461">
        <ele>408.4</ele>
        <time>2017-01-29T09:26:11Z</time>
      </trkpt>
      <trkpt lat="43.54247" lon="6.28453">
        <ele>409.5</ele>
        <time>2017-01-29T09:26:23Z</time>
      </trkpt>
      <trkpt lat="43.54252" lon="6.28443">
        <ele>410.5</ele>
        <time>2017-01-29T09:26:36Z</time>
      </trkpt>
      <trkpt lat="43.54257" lon="6.28431">
        <ele>411.2</ele>
        <time>2017-01-29T09:26:45Z</time>
      </trkpt>
      <trkpt lat="43.5426" lon="6.28419">
        <ele>412.3</ele>
        <time>2017-01-29T09:26:58Z</time>
      </trkpt>
      <trkpt lat="43.54264" lon="6.28406">
        <ele>413.5</ele>
        <time>2017-01-29T09:27:12Z</time>
      </trkpt>
      <trkpt lat="43.54269" lon="6.28395">
        <ele>414.9</ele>
        <time>2017-01-29T09:27:26Z</time>
      </trkpt>
      <trkpt lat="43.54265" lon="6.28382">
        <ele>416.3</ele>
        <time>2017-01-29T09:27:39Z</time>
      </trkpt>
      <trkpt lat="43.54269" lon="6.2837">
        <ele>417.3</ele>
        <time>2017-01-29T09:27:49Z</time>
      </trkpt>
      <trkpt lat="43.5427" lon="6.28358">
        <ele>418.4</ele>
        <time>2017-01-29T09:27:59Z</time>
      </trkpt>
      <trkpt lat="43.54276" lon="6.28348">
        <ele>419.3</ele>
        <time>2017-01-29T09:28:07Z</time>
      </trkpt>
      <trkpt lat="43.54274" lon="6.28335">
        <ele>421.1</ele>
        <time>2017-01-29T09:28:23Z</time>
      </trkpt>
      <trkpt lat="43.54275" lon="6.28322">
        <ele>422.4</ele>
        <time>2017-01-29T09:28:34Z</time>
      </trkpt>
      <trkpt lat="43.54276" lon="6.2831">
        <ele>425</ele>
        <time>2017-01-29T09:28:57Z</time>
      </trkpt>
      <trkpt lat="43.54278" lon="6.28297">
        <ele>426.7</ele>
        <time>2017-01-29T09:29:12Z</time>
      </trkpt>
      <trkpt lat="43.54282" lon="6.28286">
        <ele>427.9</ele>
        <time>2017-01-29T09:29:21Z</time>
      </trkpt>
      <trkpt lat="43.54285" lon="6.28273">
        <ele>429.3</ele>
        <time>2017-01-29T09:29:31Z</time>
      </trkpt>
      <trkpt lat="43.54293" lon="6.28266">
        <ele>430.6</ele>
        <time>2017-01-29T09:29:39Z</time>
      </trkpt>
      <trkpt lat="43.54296" lon="6.28253">
        <ele>431.9</ele>
        <time>2017-01-29T09:29:52Z</time>
      </trkpt>
      <trkpt lat="43.54297" lon="6.28241">
        <ele>433.6</ele>
        <time>2017-01-29T09:30:05Z</time>
      </trkpt>
      <trkpt lat="43.54298" lon="6.28227">
        <ele>435.7</ele>
        <time>2017-01-29T09:30:21Z</time>
      </trkpt>
      <trkpt lat="43.54298" lon="6.28214">
        <ele>439.1</ele>
        <time>2017-01-29T09:31:17Z</time>
      </trkpt>
      <trkpt lat="43.54303" lon="6.28204">
        <ele>439.7</ele>
        <time>2017-01-29T09:31:30Z</time>
      </trkpt>
      <trkpt lat="43.54308" lon="6.28193">
        <ele>440.6</ele>
        <time>2017-01-29T09:31:41Z</time>
      </trkpt>
      <trkpt lat="43.54314" lon="6.28183">
        <ele>442.3</ele>
        <time>2017-01-29T09:31:54Z</time>
      </trkpt>
      <trkpt lat="43.54319" lon="6.2817">
        <ele>444.6</ele>
        <time>2017-01-29T09:32:18Z</time>
      </trkpt>
      <trkpt lat="43.5432" lon="6.28158">
        <ele>446.6</ele>
        <time>2017-01-29T09:33:04Z</time>
      </trkpt>
      <trkpt lat="43.54322" lon="6.28145">
        <ele>447</ele>
        <time>2017-01-29T09:33:32Z</time>
      </trkpt>
      <trkpt lat="43.54322" lon="6.28132">
        <ele>447.6</ele>
        <time>2017-01-29T09:33:43Z</time>
      </trkpt>
      <trkpt lat="43.54327" lon="6.28121">
        <ele>448.2</ele>
        <time>2017-01-29T09:33:55Z</time>
      </trkpt>
      <trkpt lat="43.54331" lon="6.28109">
        <ele>448.6</ele>
        <time>2017-01-29T09:34:07Z</time>
      </trkpt>
      <trkpt lat="43.54336" lon="6.28098">
        <ele>448.9</ele>
        <time>2017-01-29T09:34:15Z</time>
      </trkpt>
      <trkpt lat="43.54341" lon="6.28087">
        <ele>449.1</ele>
        <time>2017-01-29T09:34:25Z</time>
      </trkpt>
      <trkpt lat="43.54345" lon="6.28076">
        <ele>448.6</ele>
        <time>2017-01-29T09:34:45Z</time>
      </trkpt>
      <trkpt lat="43.54352" lon="6.28067">
        <ele>448.4</ele>
        <time>2017-01-29T09:35:01Z</time>
      </trkpt>
      <trkpt lat="43.54358" lon="6.28058">
        <ele>446.1</ele>
        <time>2017-01-29T09:36:54Z</time>
      </trkpt>
      <trkpt lat="43.54365" lon="6.28049">
        <ele>445.5</ele>
        <time>2017-01-29T09:37:09Z</time>
      </trkpt>
      <trkpt lat="43.54373" lon="6.28042">
        <ele>445.2</ele>
        <time>2017-01-29T09:37:20Z</time>
      </trkpt>
      <trkpt lat="43.54381" lon="6.28034">
        <ele>444.7</ele>
        <time>2017-01-29T09:37:30Z</time>
      </trkpt>
      <trkpt lat="43.54387" lon="6.28025">
        <ele>444.5</ele>
        <time>2017-01-29T09:37:47Z</time>
      </trkpt>
      <trkpt lat="43.54394" lon="6.28016">
        <ele>444.9</ele>
        <time>2017-01-29T09:38:02Z</time>
      </trkpt>
      <trkpt lat="43.54401" lon="6.28008">
        <ele>444.9</ele>
        <time>2017-01-29T09:38:14Z</time>
      </trkpt>
      <trkpt lat="43.54409" lon="6.27999">
        <ele>444.7</ele>
        <time>2017-01-29T09:38:27Z</time>
      </trkpt>
      <trkpt lat="43.54418" lon="6.28002">
        <ele>444.5</ele>
        <time>2017-01-29T09:38:47Z</time>
      </trkpt>
      <trkpt lat="43.54426" lon="6.28009">
        <ele>445.1</ele>
        <time>2017-01-29T09:39:00Z</time>
      </trkpt>
      <trkpt lat="43.54435" lon="6.28013">
        <ele>445.6</ele>
        <time>2017-01-29T09:39:12Z</time>
      </trkpt>
      <trkpt lat="43.54444" lon="6.28014">
        <ele>445.8</ele>
        <time>2017-01-29T09:39:23Z</time>
      </trkpt>
      <trkpt lat="43.54453" lon="6.2802">
        <ele>445.9</ele>
        <time>2017-01-29T09:39:32Z</time>
      </trkpt>
      <trkpt lat="43.54462" lon="6.28017">
        <ele>445.8</ele>
        <time>2017-01-29T09:39:44Z</time>
      </trkpt>
      <trkpt lat="43.54472" lon="6.28019">
        <ele>445.7</ele>
        <time>2017-01-29T09:39:55Z</time>
      </trkpt>
      <trkpt lat="43.54482" lon="6.28018">
        <ele>445.3</ele>
        <time>2017-01-29T09:40:04Z</time>
      </trkpt>
      <trkpt lat="43.54489" lon="6.28009">
        <ele>445.3</ele>
        <time>2017-01-29T09:40:59Z</time>
      </trkpt>
      <trkpt lat="43.54498" lon="6.28012">
        <ele>445</ele>
        <time>2017-01-29T09:41:20Z</time>
      </trkpt>
      <trkpt lat="43.54509" lon="6.28012">
        <ele>444.6</ele>
        <time>2017-01-29T09:41:32Z</time>
      </trkpt>
      <trkpt lat="43.54517" lon="6.28008">
        <ele>443.9</ele>
        <time>2017-01-29T09:41:44Z</time>
      </trkpt>
      <trkpt lat="43.54526" lon="6.28009">
        <ele>443.1</ele>
        <time>2017-01-29T09:41:59Z</time>
      </trkpt>
      <trkpt lat="43.54535" lon="6.28006">
        <ele>442.5</ele>
        <time>2017-01-29T09:42:12Z</time>
      </trkpt>
      <trkpt lat="43.54545" lon="6.28005">
        <ele>442.3</ele>
        <time>2017-01-29T09:42:24Z</time>
      </trkpt>
      <trkpt lat="43.54555" lon="6.28005">
        <ele>442</ele>
        <time>2017-01-29T09:42:42Z</time>
      </trkpt>
      <trkpt lat="43.54564" lon="6.28005">
        <ele>441.3</ele>
        <time>2017-01-29T09:42:55Z</time>
      </trkpt>
      <trkpt lat="43.54574" lon="6.28004">
        <ele>440.8</ele>
        <time>2017-01-29T09:43:04Z</time>
      </trkpt>
      <trkpt lat="43.54583" lon="6.28006">
        <ele>440.4</ele>
        <time>2017-01-29T09:43:14Z</time>
      </trkpt>
      <trkpt lat="43.54592" lon="6.2801">
        <ele>439.5</ele>
        <time>2017-01-29T09:43:38Z</time>
      </trkpt>
      <trkpt lat="43.546" lon="6.28016">
        <ele>439.3</ele>
        <time>2017-01-29T09:43:51Z</time>
      </trkpt>
      <trkpt lat="43.54609" lon="6.28018">
        <ele>438.9</ele>
        <time>2017-01-29T09:44:06Z</time>
      </trkpt>
      <trkpt lat="43.54618" lon="6.28021">
        <ele>437.9</ele>
        <time>2017-01-29T09:44:24Z</time>
      </trkpt>
      <trkpt lat="43.54627" lon="6.28027">
        <ele>436.7</ele>
        <time>2017-01-29T09:44:41Z</time>
      </trkpt>
      <trkpt lat="43.54634" lon="6.28034">
        <ele>435.5</ele>
        <time>2017-01-29T09:44:54Z</time>
      </trkpt>
      <trkpt lat="43.5464" lon="6.28044">
        <ele>434.7</ele>
        <time>2017-01-29T09:45:06Z</time>
      </trkpt>
      <trkpt lat="43.54647" lon="6.28053">
        <ele>433.6</ele>
        <time>2017-01-29T09:45:20Z</time>
      </trkpt>
      <trkpt lat="43.54655" lon="6.28061">
        <ele>432.5</ele>
        <time>2017-01-29T09:45:36Z</time>
      </trkpt>
      <trkpt lat="43.54665" lon="6.28063">
        <ele>432.1</ele>
        <time>2017-01-29T09:45:44Z</time>
      </trkpt>
      <trkpt lat="43.54674" lon="6.28065">
        <ele>431</ele>
        <time>2017-01-29T09:45:54Z</time>
      </trkpt>
      <trkpt lat="43.54684" lon="6.2807">
        <ele>430.2</ele>
        <time>2017-01-29T09:46:05Z</time>
      </trkpt>
      <trkpt lat="43.54692" lon="6.28076">
        <ele>429.3</ele>
        <time>2017-01-29T09:46:18Z</time>
      </trkpt>
      <trkpt lat="43.54702" lon="6.28073">
        <ele>428.9</ele>
        <time>2017-01-29T09:46:26Z</time>
      </trkpt>
      <trkpt lat="43.54712" lon="6.28072">
        <ele>428.5</ele>
        <time>2017-01-29T09:46:36Z</time>
      </trkpt>
      <trkpt lat="43.54721" lon="6.28074">
        <ele>428.2</ele>
        <time>2017-01-29T09:46:44Z</time>
      </trkpt>
      <trkpt lat="43.5473" lon="6.28077">
        <ele>428</ele>
        <time>2017-01-29T09:46:53Z</time>
      </trkpt>
      <trkpt lat="43.54739" lon="6.28078">
        <ele>427.9</ele>
        <time>2017-01-29T09:47:01Z</time>
      </trkpt>
      <trkpt lat="43.54748" lon="6.28074">
        <ele>427.9</ele>
        <time>2017-01-29T09:47:12Z</time>
      </trkpt>
      <trkpt lat="43.54757" lon="6.28069">
        <ele>427.8</ele>
        <time>2017-01-29T09:47:23Z</time>
      </trkpt>
      <trkpt lat="43.54763" lon="6.28059">
        <ele>427.6</ele>
        <time>2017-01-29T09:47:39Z</time>
      </trkpt>
      <trkpt lat="43.5477" lon="6.28051">
        <ele>426.9</ele>
        <time>2017-01-29T09:47:50Z</time>
      </trkpt>
      <trkpt lat="43.54778" lon="6.28045">
        <ele>426.3</ele>
        <time>2017-01-29T09:48:04Z</time>
      </trkpt>
      <trkpt lat="43.54787" lon="6.28049">
        <ele>425.9</ele>
        <time>2017-01-29T09:48:23Z</time>
      </trkpt>
      <trkpt lat="43.54796" lon="6.28047">
        <ele>425.8</ele>
        <time>2017-01-29T09:48:50Z</time>
      </trkpt>
      <trkpt lat="43.548" lon="6.28035">
        <ele>425.4</ele>
        <time>2017-01-29T09:49:03Z</time>
      </trkpt>
      <trkpt lat="43.54801" lon="6.28023">
        <ele>424</ele>
        <time>2017-01-29T09:49:20Z</time>
      </trkpt>
      <trkpt lat="43.54798" lon="6.28011">
        <ele>422.9</ele>
        <time>2017-01-29T09:49:50Z</time>
      </trkpt>
      <trkpt lat="43.5479" lon="6.28006">
        <ele>422.3</ele>
        <time>2017-01-29T09:50:02Z</time>
      </trkpt>
      <trkpt lat="43.54783" lon="6.27997">
        <ele>421.8</ele>
        <time>2017-01-29T09:50:14Z</time>
      </trkpt>
      <trkpt lat="43.54775" lon="6.27991">
        <ele>421.3</ele>
        <time>2017-01-29T09:50:27Z</time>
      </trkpt>
      <trkpt lat="43.54766" lon="6.27989">
        <ele>420.5</ele>
        <time>2017-01-29T09:50:45Z</time>
      </trkpt>
      <trkpt lat="43.54757" lon="6.27984">
        <ele>419.6</ele>
        <time>2017-01-29T09:51:05Z</time>
      </trkpt>
      <trkpt lat="43.5475" lon="6.27975">
        <ele>417.9</ele>
        <time>2017-01-29T09:51:22Z</time>
      </trkpt>
      <trkpt lat="43.5474" lon="6.27976">
        <ele>417.1</ele>
        <time>2017-01-29T09:51:31Z</time>
      </trkpt>
      <trkpt lat="43.54731" lon="6.27972">
        <ele>415.9</ele>
        <time>2017-01-29T09:52:15Z</time>
      </trkpt>
      <trkpt lat="43.54732" lon="6.27959">
        <ele>413.8</ele>
        <time>2017-01-29T09:52:40Z</time>
      </trkpt>
      <trkpt lat="43.54732" lon="6.27944">
        <ele>412.5</ele>
        <time>2017-01-29T09:52:55Z</time>
      </trkpt>
      <trkpt lat="43.54735" lon="6.27932">
        <ele>410.2</ele>
        <time>2017-01-29T09:53:34Z</time>
      </trkpt>
      <trkpt lat="43.54731" lon="6.27921">
        <ele>409.5</ele>
        <time>2017-01-29T09:56:25Z</time>
      </trkpt>
      <trkpt lat="43.54734" lon="6.27932">
        <ele>410</ele>
        <time>2017-01-29T09:57:33Z</time>
      </trkpt>
      <trkpt lat="43.54729" lon="6.27922">
        <ele>410.3</ele>
        <time>2017-01-29T10:00:51Z</time>
      </trkpt>
      <trkpt lat="43.54723" lon="6.27912">
        <ele>410.4</ele>
        <time>2017-01-29T10:01:18Z</time>
      </trkpt>
      <trkpt lat="43.54721" lon="6.279">
        <ele>410.5</ele>
        <time>2017-01-29T10:01:39Z</time>
      </trkpt>
      <trkpt lat="43.54719" lon="6.27888">
        <ele>410.4</ele>
        <time>2017-01-29T10:01:51Z</time>
      </trkpt>
      <trkpt lat="43.54712" lon="6.27879">
        <ele>410.8</ele>
        <time>2017-01-29T10:03:10Z</time>
      </trkpt>
      <trkpt lat="43.54716" lon="6.27891">
        <ele>410.4</ele>
        <time>2017-01-29T10:04:46Z</time>
      </trkpt>
      <trkpt lat="43.54718" lon="6.27904">
        <ele>410.4</ele>
        <time>2017-01-29T10:04:54Z</time>
      </trkpt>
      <trkpt lat="43.54721" lon="6.27917">
        <ele>410.4</ele>
        <time>2017-01-29T10:05:09Z</time>
      </trkpt>
      <trkpt lat="43.54728" lon="6.27926">
        <ele>410.5</ele>
        <time>2017-01-29T10:05:20Z</time>
      </trkpt>
      <trkpt lat="43.54735" lon="6.27933">
        <ele>410.5</ele>
        <time>2017-01-29T10:05:28Z</time>
      </trkpt>
      <trkpt lat="43.54745" lon="6.27932">
        <ele>410.5</ele>
        <time>2017-01-29T10:05:37Z</time>
      </trkpt>
      <trkpt lat="43.54754" lon="6.27926">
        <ele>410.6</ele>
        <time>2017-01-29T10:05:45Z</time>
      </trkpt>
      <trkpt lat="43.54761" lon="6.27918">
        <ele>410.7</ele>
        <time>2017-01-29T10:05:54Z</time>
      </trkpt>
      <trkpt lat="43.54769" lon="6.2791">
        <ele>410.7</ele>
        <time>2017-01-29T10:06:03Z</time>
      </trkpt>
      <trkpt lat="43.54776" lon="6.27902">
        <ele>410.3</ele>
        <time>2017-01-29T10:06:14Z</time>
      </trkpt>
      <trkpt lat="43.54784" lon="6.27894">
        <ele>410</ele>
        <time>2017-01-29T10:06:23Z</time>
      </trkpt>
      <trkpt lat="43.54793" lon="6.27891">
        <ele>410</ele>
        <time>2017-01-29T10:06:33Z</time>
      </trkpt>
      <trkpt lat="43.54801" lon="6.27883">
        <ele>409.8</ele>
        <time>2017-01-29T10:06:42Z</time>
      </trkpt>
      <trkpt lat="43.54805" lon="6.27871">
        <ele>409.5</ele>
        <time>2017-01-29T10:06:51Z</time>
      </trkpt>
      <trkpt lat="43.54806" lon="6.27859">
        <ele>408.7</ele>
        <time>2017-01-29T10:07:02Z</time>
      </trkpt>
      <trkpt lat="43.54806" lon="6.27846">
        <ele>406.8</ele>
        <time>2017-01-29T10:07:19Z</time>
      </trkpt>
      <trkpt lat="43.54799" lon="6.27837">
        <ele>405.2</ele>
        <time>2017-01-29T10:07:35Z</time>
      </trkpt>
      <trkpt lat="43.54808" lon="6.27832">
        <ele>403.5</ele>
        <time>2017-01-29T10:08:05Z</time>
      </trkpt>
      <trkpt lat="43.54816" lon="6.27826">
        <ele>403.9</ele>
        <time>2017-01-29T10:08:18Z</time>
      </trkpt>
      <trkpt lat="43.54817" lon="6.27814">
        <ele>404.1</ele>
        <time>2017-01-29T10:08:30Z</time>
      </trkpt>
      <trkpt lat="43.54813" lon="6.27803">
        <ele>403.8</ele>
        <time>2017-01-29T10:08:44Z</time>
      </trkpt>
      <trkpt lat="43.54809" lon="6.27792">
        <ele>402.9</ele>
        <time>2017-01-29T10:09:30Z</time>
      </trkpt>
      <trkpt lat="43.54807" lon="6.2778">
        <ele>401.5</ele>
        <time>2017-01-29T10:09:46Z</time>
      </trkpt>
      <trkpt lat="43.54802" lon="6.27768">
        <ele>399.6</ele>
        <time>2017-01-29T10:10:02Z</time>
      </trkpt>
      <trkpt lat="43.54798" lon="6.27756">
        <ele>397.8</ele>
        <time>2017-01-29T10:10:14Z</time>
      </trkpt>
      <trkpt lat="43.54792" lon="6.27746">
        <ele>395.5</ele>
        <time>2017-01-29T10:10:30Z</time>
      </trkpt>
      <trkpt lat="43.54789" lon="6.27734">
        <ele>393.5</ele>
        <time>2017-01-29T10:10:45Z</time>
      </trkpt>
      <trkpt lat="43.54787" lon="6.27721">
        <ele>391.8</ele>
        <time>2017-01-29T10:10:56Z</time>
      </trkpt>
      <trkpt lat="43.54783" lon="6.2771">
        <ele>390.4</ele>
        <time>2017-01-29T10:11:10Z</time>
      </trkpt>
      <trkpt lat="43.54779" lon="6.27698">
        <ele>389</ele>
        <time>2017-01-29T10:11:27Z</time>
      </trkpt>
      <trkpt lat="43.54782" lon="6.27686">
        <ele>388.1</ele>
        <time>2017-01-29T10:11:38Z</time>
      </trkpt>
      <trkpt lat="43.54786" lon="6.27673">
        <ele>386.9</ele>
        <time>2017-01-29T10:11:49Z</time>
      </trkpt>
      <trkpt lat="43.5479" lon="6.27661">
        <ele>385.8</ele>
        <time>2017-01-29T10:12:01Z</time>
      </trkpt>
      <trkpt lat="43.54792" lon="6.27648">
        <ele>385</ele>
        <time>2017-01-29T10:12:14Z</time>
      </trkpt>
      <trkpt lat="43.54793" lon="6.27635">
        <ele>384.1</ele>
        <time>2017-01-29T10:12:25Z</time>
      </trkpt>
      <trkpt lat="43.54796" lon="6.27623">
        <ele>383</ele>
        <time>2017-01-29T10:12:37Z</time>
      </trkpt>
      <trkpt lat="43.54803" lon="6.27613">
        <ele>382</ele>
        <time>2017-01-29T10:12:45Z</time>
      </trkpt>
      <trkpt lat="43.54809" lon="6.27604">
        <ele>381.7</ele>
        <time>2017-01-29T10:12:55Z</time>
      </trkpt>
      <trkpt lat="43.54813" lon="6.27592">
        <ele>381.5</ele>
        <time>2017-01-29T10:13:08Z</time>
      </trkpt>
      <trkpt lat="43.5482" lon="6.27584">
        <ele>380.8</ele>
        <time>2017-01-29T10:13:19Z</time>
      </trkpt>
      <trkpt lat="43.54822" lon="6.27571">
        <ele>380.2</ele>
        <time>2017-01-29T10:13:29Z</time>
      </trkpt>
      <trkpt lat="43.54821" lon="6.27557">
        <ele>378.8</ele>
        <time>2017-01-29T10:13:43Z</time>
      </trkpt>
      <trkpt lat="43.5482" lon="6.27544">
        <ele>376.2</ele>
        <time>2017-01-29T10:14:03Z</time>
      </trkpt>
      <trkpt lat="43.54819" lon="6.27531">
        <ele>374.4</ele>
        <time>2017-01-29T10:14:16Z</time>
      </trkpt>
      <trkpt lat="43.54817" lon="6.27518">
        <ele>373.6</ele>
        <time>2017-01-29T10:14:28Z</time>
      </trkpt>
      <trkpt lat="43.54817" lon="6.27505">
        <ele>372.8</ele>
        <time>2017-01-29T10:14:40Z</time>
      </trkpt>
      <trkpt lat="43.54815" lon="6.27493">
        <ele>372.2</ele>
        <time>2017-01-29T10:14:50Z</time>
      </trkpt>
      <trkpt lat="43.54812" lon="6.2748">
        <ele>371.7</ele>
        <time>2017-01-29T10:14:59Z</time>
      </trkpt>
      <trkpt lat="43.54813" lon="6.27468">
        <ele>371.1</ele>
        <time>2017-01-29T10:15:12Z</time>
      </trkpt>
      <trkpt lat="43.54817" lon="6.27456">
        <ele>370.3</ele>
        <time>2017-01-29T10:15:24Z</time>
      </trkpt>
      <trkpt lat="43.54816" lon="6.27443">
        <ele>369.6</ele>
        <time>2017-01-29T10:15:35Z</time>
      </trkpt>
      <trkpt lat="43.54813" lon="6.2743">
        <ele>369.1</ele>
        <time>2017-01-29T10:15:48Z</time>
      </trkpt>
      <trkpt lat="43.54812" lon="6.27417">
        <ele>368.6</ele>
        <time>2017-01-29T10:15:58Z</time>
      </trkpt>
      <trkpt lat="43.5481" lon="6.27404">
        <ele>367.8</ele>
        <time>2017-01-29T10:16:12Z</time>
      </trkpt>
      <trkpt lat="43.54805" lon="6.27393">
        <ele>366.9</ele>
        <time>2017-01-29T10:16:25Z</time>
      </trkpt>
      <trkpt lat="43.54802" lon="6.27381">
        <ele>366</ele>
        <time>2017-01-29T10:16:38Z</time>
      </trkpt>
      <trkpt lat="43.54794" lon="6.27375">
        <ele>365.3</ele>
        <time>2017-01-29T10:16:47Z</time>
      </trkpt>
      <trkpt lat="43.54794" lon="6.27362">
        <ele>364.5</ele>
        <time>2017-01-29T10:16:58Z</time>
      </trkpt>
      <trkpt lat="43.54794" lon="6.27348">
        <ele>363.8</ele>
        <time>2017-01-29T10:17:08Z</time>
      </trkpt>
      <trkpt lat="43.54798" lon="6.27336">
        <ele>363.2</ele>
        <time>2017-01-29T10:17:17Z</time>
      </trkpt>
      <trkpt lat="43.54798" lon="6.27323">
        <ele>362.8</ele>
        <time>2017-01-29T10:17:27Z</time>
      </trkpt>
      <trkpt lat="43.54799" lon="6.27311">
        <ele>362.1</ele>
        <time>2017-01-29T10:17:37Z</time>
      </trkpt>
      <trkpt lat="43.54802" lon="6.27298">
        <ele>361.4</ele>
        <time>2017-01-29T10:17:46Z</time>
      </trkpt>
      <trkpt lat="43.54809" lon="6.27291">
        <ele>360.9</ele>
        <time>2017-01-29T10:18:05Z</time>
      </trkpt>
      <trkpt lat="43.5481" lon="6.27279">
        <ele>360.7</ele>
        <time>2017-01-29T10:18:33Z</time>
      </trkpt>
      <trkpt lat="43.54804" lon="6.27288">
        <ele>361.2</ele>
        <time>2017-01-29T10:20:00Z</time>
      </trkpt>
      <trkpt lat="43.54801" lon="6.27275">
        <ele>361.3</ele>
        <time>2017-01-29T10:20:25Z</time>
      </trkpt>
      <trkpt lat="43.54794" lon="6.27266">
        <ele>361</ele>
        <time>2017-01-29T10:20:36Z</time>
      </trkpt>
      <trkpt lat="43.5479" lon="6.27254">
        <ele>360.5</ele>
        <time>2017-01-29T10:21:02Z</time>
      </trkpt>
      <trkpt lat="43.54793" lon="6.27243">
        <ele>360.4</ele>
        <time>2017-01-29T10:21:16Z</time>
      </trkpt>
      <trkpt lat="43.54797" lon="6.2723">
        <ele>360.1</ele>
        <time>2017-01-29T10:21:24Z</time>
      </trkpt>
      <trkpt lat="43.54796" lon="6.27217">
        <ele>359.8</ele>
        <time>2017-01-29T10:21:32Z</time>
      </trkpt>
      <trkpt lat="43.5479" lon="6.27207">
        <ele>359.5</ele>
        <time>2017-01-29T10:21:46Z</time>
      </trkpt>
      <trkpt lat="43.54788" lon="6.27194">
        <ele>359.5</ele>
        <time>2017-01-29T10:21:59Z</time>
      </trkpt>
      <trkpt lat="43.54783" lon="6.27184">
        <ele>359.6</ele>
        <time>2017-01-29T10:22:12Z</time>
      </trkpt>
      <trkpt lat="43.54781" lon="6.27171">
        <ele>359.8</ele>
        <time>2017-01-29T10:22:23Z</time>
      </trkpt>
      <trkpt lat="43.54776" lon="6.27159">
        <ele>359.5</ele>
        <time>2017-01-29T10:22:32Z</time>
      </trkpt>
      <trkpt lat="43.54769" lon="6.2715">
        <ele>359.6</ele>
        <time>2017-01-29T10:22:42Z</time>
      </trkpt>
      <trkpt lat="43.54762" lon="6.27142">
        <ele>359.7</ele>
        <time>2017-01-29T10:22:49Z</time>
      </trkpt>
      <trkpt lat="43.54753" lon="6.27138">
        <ele>359.7</ele>
        <time>2017-01-29T10:22:58Z</time>
      </trkpt>
      <trkpt lat="43.54746" lon="6.27131">
        <ele>360</ele>
        <time>2017-01-29T10:23:09Z</time>
      </trkpt>
      <trkpt lat="43.5474" lon="6.27121">
        <ele>359.9</ele>
        <time>2017-01-29T10:23:21Z</time>
      </trkpt>
      <trkpt lat="43.54734" lon="6.27113">
        <ele>359.7</ele>
        <time>2017-01-29T10:23:35Z</time>
      </trkpt>
      <trkpt lat="43.54726" lon="6.27105">
        <ele>359.6</ele>
        <time>2017-01-29T10:23:45Z</time>
      </trkpt>
      <trkpt lat="43.54718" lon="6.271">
        <ele>359.5</ele>
        <time>2017-01-29T10:23:54Z</time>
      </trkpt>
      <trkpt lat="43.54713" lon="6.2709">
        <ele>359.6</ele>
        <time>2017-01-29T10:24:05Z</time>
      </trkpt>
      <trkpt lat="43.54708" lon="6.27079">
        <ele>359.4</ele>
        <time>2017-01-29T10:24:19Z</time>
      </trkpt>
      <trkpt lat="43.54702" lon="6.27067">
        <ele>359</ele>
        <time>2017-01-29T10:24:32Z</time>
      </trkpt>
      <trkpt lat="43.54697" lon="6.27055">
        <ele>358.8</ele>
        <time>2017-01-29T10:24:41Z</time>
      </trkpt>
      <trkpt lat="43.54691" lon="6.27045">
        <ele>358.7</ele>
        <time>2017-01-29T10:24:54Z</time>
      </trkpt>
      <trkpt lat="43.54683" lon="6.27038">
        <ele>358.6</ele>
        <time>2017-01-29T10:25:02Z</time>
      </trkpt>
      <trkpt lat="43.54679" lon="6.27027">
        <ele>359.2</ele>
        <time>2017-01-29T10:25:30Z</time>
      </trkpt>
      <trkpt lat="43.5467" lon="6.2702">
        <ele>359.3</ele>
        <time>2017-01-29T10:25:36Z</time>
      </trkpt>
      <trkpt lat="43.54662" lon="6.27011">
        <ele>359.7</ele>
        <time>2017-01-29T10:25:44Z</time>
      </trkpt>
      <trkpt lat="43.54656" lon="6.27001">
        <ele>360</ele>
        <time>2017-01-29T10:25:52Z</time>
      </trkpt>
      <trkpt lat="43.54654" lon="6.26989">
        <ele>360.5</ele>
        <time>2017-01-29T10:26:05Z</time>
      </trkpt>
      <trkpt lat="43.54647" lon="6.2698">
        <ele>360.7</ele>
        <time>2017-01-29T10:26:13Z</time>
      </trkpt>
      <trkpt lat="43.54641" lon="6.2697">
        <ele>361</ele>
        <time>2017-01-29T10:26:31Z</time>
      </trkpt>
      <trkpt lat="43.54632" lon="6.26968">
        <ele>361.4</ele>
        <time>2017-01-29T10:26:52Z</time>
      </trkpt>
      <trkpt lat="43.54624" lon="6.26962">
        <ele>361.6</ele>
        <time>2017-01-29T10:27:00Z</time>
      </trkpt>
      <trkpt lat="43.54617" lon="6.26953">
        <ele>361.8</ele>
        <time>2017-01-29T10:27:13Z</time>
      </trkpt>
      <trkpt lat="43.54624" lon="6.26944">
        <ele>362.4</ele>
        <time>2017-01-29T10:27:28Z</time>
      </trkpt>
      <trkpt lat="43.54621" lon="6.26931">
        <ele>362.8</ele>
        <time>2017-01-29T10:27:40Z</time>
      </trkpt>
      <trkpt lat="43.54622" lon="6.26918">
        <ele>363.9</ele>
        <time>2017-01-29T10:27:55Z</time>
      </trkpt>
      <trkpt lat="43.5462" lon="6.26906">
        <ele>365.2</ele>
        <time>2017-01-29T10:28:09Z</time>
      </trkpt>
      <trkpt lat="43.54615" lon="6.26895">
        <ele>366.3</ele>
        <time>2017-01-29T10:28:21Z</time>
      </trkpt>
      <trkpt lat="43.54608" lon="6.26887">
        <ele>367.2</ele>
        <time>2017-01-29T10:28:35Z</time>
      </trkpt>
      <trkpt lat="43.54603" lon="6.26876">
        <ele>368.5</ele>
        <time>2017-01-29T10:28:49Z</time>
      </trkpt>
      <trkpt lat="43.54598" lon="6.26865">
        <ele>369.9</ele>
        <time>2017-01-29T10:29:04Z</time>
      </trkpt>
      <trkpt lat="43.54594" lon="6.26854">
        <ele>371.4</ele>
        <time>2017-01-29T10:29:20Z</time>
      </trkpt>
      <trkpt lat="43.54593" lon="6.26841">
        <ele>372.5</ele>
        <time>2017-01-29T10:29:34Z</time>
      </trkpt>
      <trkpt lat="43.54588" lon="6.2683">
        <ele>373.4</ele>
        <time>2017-01-29T10:29:45Z</time>
      </trkpt>
      <trkpt lat="43.54581" lon="6.26819">
        <ele>374.3</ele>
        <time>2017-01-29T10:29:55Z</time>
      </trkpt>
      <trkpt lat="43.54577" lon="6.26809">
        <ele>375.1</ele>
        <time>2017-01-29T10:30:07Z</time>
      </trkpt>
      <trkpt lat="43.54569" lon="6.26803">
        <ele>376.1</ele>
        <time>2017-01-29T10:30:19Z</time>
      </trkpt>
      <trkpt lat="43.5456" lon="6.26796">
        <ele>377.1</ele>
        <time>2017-01-29T10:30:35Z</time>
      </trkpt>
      <trkpt lat="43.54555" lon="6.26785">
        <ele>377.6</ele>
        <time>2017-01-29T10:30:57Z</time>
      </trkpt>
      <trkpt lat="43.54546" lon="6.26789">
        <ele>377.8</ele>
        <time>2017-01-29T10:31:29Z</time>
      </trkpt>
      <trkpt lat="43.54537" lon="6.26787">
        <ele>378.1</ele>
        <time>2017-01-29T10:31:41Z</time>
      </trkpt>
      <trkpt lat="43.54528" lon="6.26782">
        <ele>378.2</ele>
        <time>2017-01-29T10:31:51Z</time>
      </trkpt>
      <trkpt lat="43.54519" lon="6.26778">
        <ele>378.6</ele>
        <time>2017-01-29T10:32:02Z</time>
      </trkpt>
      <trkpt lat="43.54511" lon="6.26772">
        <ele>379</ele>
        <time>2017-01-29T10:32:12Z</time>
      </trkpt>
      <trkpt lat="43.54502" lon="6.26771">
        <ele>379.7</ele>
        <time>2017-01-29T10:32:44Z</time>
      </trkpt>
      <trkpt lat="43.54496" lon="6.26763">
        <ele>380</ele>
        <time>2017-01-29T10:32:54Z</time>
      </trkpt>
      <trkpt lat="43.54489" lon="6.26754">
        <ele>379.8</ele>
        <time>2017-01-29T10:33:02Z</time>
      </trkpt>
      <trkpt lat="43.5448" lon="6.26747">
        <ele>379.5</ele>
        <time>2017-01-29T10:33:09Z</time>
      </trkpt>
      <trkpt lat="43.54471" lon="6.26741">
        <ele>379.1</ele>
        <time>2017-01-29T10:33:17Z</time>
      </trkpt>
      <trkpt lat="43.54462" lon="6.2674">
        <ele>378.9</ele>
        <time>2017-01-29T10:33:24Z</time>
      </trkpt>
      <trkpt lat="43.54456" lon="6.2675">
        <ele>378.7</ele>
        <time>2017-01-29T10:33:31Z</time>
      </trkpt>
      <trkpt lat="43.54448" lon="6.26758">
        <ele>378.4</ele>
        <time>2017-01-29T10:33:40Z</time>
      </trkpt>
      <trkpt lat="43.54442" lon="6.26766">
        <ele>378.1</ele>
        <time>2017-01-29T10:33:47Z</time>
      </trkpt>
      <trkpt lat="43.54434" lon="6.26773">
        <ele>377.9</ele>
        <time>2017-01-29T10:33:54Z</time>
      </trkpt>
      <trkpt lat="43.54425" lon="6.26779">
        <ele>377.3</ele>
        <time>2017-01-29T10:34:05Z</time>
      </trkpt>
      <trkpt lat="43.54418" lon="6.26789">
        <ele>376.8</ele>
        <time>2017-01-29T10:34:13Z</time>
      </trkpt>
      <trkpt lat="43.54411" lon="6.26799">
        <ele>376.6</ele>
        <time>2017-01-29T10:34:19Z</time>
      </trkpt>
      <trkpt lat="43.54403" lon="6.26801">
        <ele>376.3</ele>
        <time>2017-01-29T10:34:27Z</time>
      </trkpt>
      <trkpt lat="43.54393" lon="6.26807">
        <ele>376.2</ele>
        <time>2017-01-29T10:34:33Z</time>
      </trkpt>
      <trkpt lat="43.54385" lon="6.26816">
        <ele>375.5</ele>
        <time>2017-01-29T10:34:42Z</time>
      </trkpt>
      <trkpt lat="43.54377" lon="6.26822">
        <ele>374.8</ele>
        <time>2017-01-29T10:34:51Z</time>
      </trkpt>
      <trkpt lat="43.5437" lon="6.2683">
        <ele>373.4</ele>
        <time>2017-01-29T10:35:03Z</time>
      </trkpt>
      <trkpt lat="43.54362" lon="6.26838">
        <ele>372.4</ele>
        <time>2017-01-29T10:35:13Z</time>
      </trkpt>
      <trkpt lat="43.54359" lon="6.2685">
        <ele>371.6</ele>
        <time>2017-01-29T10:35:20Z</time>
      </trkpt>
      <trkpt lat="43.54357" lon="6.26862">
        <ele>370</ele>
        <time>2017-01-29T10:35:34Z</time>
      </trkpt>
      <trkpt lat="43.54353" lon="6.26874">
        <ele>368</ele>
        <time>2017-01-29T10:35:48Z</time>
      </trkpt>
      <trkpt lat="43.54347" lon="6.26883">
        <ele>367.4</ele>
        <time>2017-01-29T10:35:59Z</time>
      </trkpt>
      <trkpt lat="43.54338" lon="6.26885">
        <ele>366.8</ele>
        <time>2017-01-29T10:36:10Z</time>
      </trkpt>
      <trkpt lat="43.54329" lon="6.26881">
        <ele>366.3</ele>
        <time>2017-01-29T10:36:21Z</time>
      </trkpt>
      <trkpt lat="43.54319" lon="6.26876">
        <ele>365.8</ele>
        <time>2017-01-29T10:36:34Z</time>
      </trkpt>
      <trkpt lat="43.5431" lon="6.26876">
        <ele>365.5</ele>
        <time>2017-01-29T10:36:48Z</time>
      </trkpt>
      <trkpt lat="43.54301" lon="6.26875">
        <ele>365.7</ele>
        <time>2017-01-29T10:37:02Z</time>
      </trkpt>
      <trkpt lat="43.54292" lon="6.26875">
        <ele>366.2</ele>
        <time>2017-01-29T10:37:19Z</time>
      </trkpt>
      <trkpt lat="43.54284" lon="6.26882">
        <ele>366.8</ele>
        <time>2017-01-29T10:37:37Z</time>
      </trkpt>
      <trkpt lat="43.54276" lon="6.26889">
        <ele>368</ele>
        <time>2017-01-29T10:37:53Z</time>
      </trkpt>
      <trkpt lat="43.54267" lon="6.26889">
        <ele>367.1</ele>
        <time>2017-01-29T10:38:50Z</time>
      </trkpt>
      <trkpt lat="43.54258" lon="6.26888">
        <ele>368.1</ele>
        <time>2017-01-29T10:39:33Z</time>
      </trkpt>
      <trkpt lat="43.54248" lon="6.26889">
        <ele>369.4</ele>
        <time>2017-01-29T10:39:53Z</time>
      </trkpt>
      <trkpt lat="43.54244" lon="6.26901">
        <ele>371.6</ele>
        <time>2017-01-29T10:40:15Z</time>
      </trkpt>
      <trkpt lat="43.54239" lon="6.26911">
        <ele>373.2</ele>
        <time>2017-01-29T10:40:34Z</time>
      </trkpt>
      <trkpt lat="43.5423" lon="6.26914">
        <ele>378.2</ele>
        <time>2017-01-29T10:41:24Z</time>
      </trkpt>
      <trkpt lat="43.54228" lon="6.26926">
        <ele>378.8</ele>
        <time>2017-01-29T10:41:42Z</time>
      </trkpt>
      <trkpt lat="43.54237" lon="6.26931">
        <ele>378.9</ele>
        <time>2017-01-29T10:42:01Z</time>
      </trkpt>
      <trkpt lat="43.54246" lon="6.26929">
        <ele>379</ele>
        <time>2017-01-29T10:42:18Z</time>
      </trkpt>
      <trkpt lat="43.54237" lon="6.26929">
        <ele>379.2</ele>
        <time>2017-01-29T10:42:36Z</time>
      </trkpt>
      <trkpt lat="43.5423" lon="6.26921">
        <ele>379.3</ele>
        <time>2017-01-29T10:42:58Z</time>
      </trkpt>
      <trkpt lat="43.54225" lon="6.2691">
        <ele>380.3</ele>
        <time>2017-01-29T10:43:16Z</time>
      </trkpt>
      <trkpt lat="43.5422" lon="6.26899">
        <ele>381.8</ele>
        <time>2017-01-29T10:43:31Z</time>
      </trkpt>
      <trkpt lat="43.54213" lon="6.26891">
        <ele>382.8</ele>
        <time>2017-01-29T10:43:42Z</time>
      </trkpt>
      <trkpt lat="43.54204" lon="6.26885">
        <ele>383.6</ele>
        <time>2017-01-29T10:43:52Z</time>
      </trkpt>
      <trkpt lat="43.54198" lon="6.26874">
        <ele>384.9</ele>
        <time>2017-01-29T10:44:05Z</time>
      </trkpt>
      <trkpt lat="43.54192" lon="6.26865">
        <ele>385.5</ele>
        <time>2017-01-29T10:44:15Z</time>
      </trkpt>
      <trkpt lat="43.54185" lon="6.26857">
        <ele>385.9</ele>
        <time>2017-01-29T10:44:24Z</time>
      </trkpt>
      <trkpt lat="43.54176" lon="6.26852">
        <ele>386.7</ele>
        <time>2017-01-29T10:44:36Z</time>
      </trkpt>
      <trkpt lat="43.54169" lon="6.26845">
        <ele>388.4</ele>
        <time>2017-01-29T10:44:50Z</time>
      </trkpt>
      <trkpt lat="43.5416" lon="6.26839">
        <ele>389.7</ele>
        <time>2017-01-29T10:45:02Z</time>
      </trkpt>
      <trkpt lat="43.54151" lon="6.26834">
        <ele>390.8</ele>
        <time>2017-01-29T10:45:13Z</time>
      </trkpt>
      <trkpt lat="43.54142" lon="6.2683">
        <ele>391.9</ele>
        <time>2017-01-29T10:45:22Z</time>
      </trkpt>
      <trkpt lat="43.54137" lon="6.26842">
        <ele>392.7</ele>
        <time>2017-01-29T10:45:31Z</time>
      </trkpt>
      <trkpt lat="43.54136" lon="6.26853">
        <ele>397.6</ele>
        <time>2017-01-29T11:46:03Z</time>
      </trkpt>
      <trkpt lat="43.54141" lon="6.26842">
        <ele>397.8</ele>
        <time>2017-01-29T11:47:46Z</time>
      </trkpt>
      <trkpt lat="43.5415" lon="6.26845">
        <ele>397.6</ele>
        <time>2017-01-29T11:48:15Z</time>
      </trkpt>
      <trkpt lat="43.54159" lon="6.26851">
        <ele>396.9</ele>
        <time>2017-01-29T11:48:32Z</time>
      </trkpt>
      <trkpt lat="43.54165" lon="6.26861">
        <ele>395.6</ele>
        <time>2017-01-29T11:48:44Z</time>
      </trkpt>
      <trkpt lat="43.54174" lon="6.26865">
        <ele>394.2</ele>
        <time>2017-01-29T11:48:55Z</time>
      </trkpt>
      <trkpt lat="43.54184" lon="6.26865">
        <ele>393.2</ele>
        <time>2017-01-29T11:49:04Z</time>
      </trkpt>
      <trkpt lat="43.54189" lon="6.26875">
        <ele>392.1</ele>
        <time>2017-01-29T11:49:17Z</time>
      </trkpt>
      <trkpt lat="43.54193" lon="6.26887">
        <ele>391.2</ele>
        <time>2017-01-29T11:49:31Z</time>
      </trkpt>
      <trkpt lat="43.54201" lon="6.26894">
        <ele>390.5</ele>
        <time>2017-01-29T11:49:41Z</time>
      </trkpt>
      <trkpt lat="43.5421" lon="6.26901">
        <ele>389.2</ele>
        <time>2017-01-29T11:49:55Z</time>
      </trkpt>
      <trkpt lat="43.54214" lon="6.26912">
        <ele>387.9</ele>
        <time>2017-01-29T11:50:06Z</time>
      </trkpt>
      <trkpt lat="43.54221" lon="6.26921">
        <ele>385.9</ele>
        <time>2017-01-29T11:50:21Z</time>
      </trkpt>
      <trkpt lat="43.54229" lon="6.26928">
        <ele>384.7</ele>
        <time>2017-01-29T11:50:30Z</time>
      </trkpt>
      <trkpt lat="43.54238" lon="6.2693">
        <ele>383.1</ele>
        <time>2017-01-29T11:50:49Z</time>
      </trkpt>
      <trkpt lat="43.54246" lon="6.26923">
        <ele>381.6</ele>
        <time>2017-01-29T11:51:07Z</time>
      </trkpt>
      <trkpt lat="43.54254" lon="6.26917">
        <ele>380.5</ele>
        <time>2017-01-29T11:51:17Z</time>
      </trkpt>
      <trkpt lat="43.5426" lon="6.26906">
        <ele>377.7</ele>
        <time>2017-01-29T11:51:37Z</time>
      </trkpt>
      <trkpt lat="43.54266" lon="6.26897">
        <ele>375.1</ele>
        <time>2017-01-29T11:51:56Z</time>
      </trkpt>
      <trkpt lat="43.54267" lon="6.26884">
        <ele>374.1</ele>
        <time>2017-01-29T11:52:05Z</time>
      </trkpt>
      <trkpt lat="43.54264" lon="6.26871">
        <ele>373.4</ele>
        <time>2017-01-29T11:52:12Z</time>
      </trkpt>
      <trkpt lat="43.54265" lon="6.26857">
        <ele>372.9</ele>
        <time>2017-01-29T11:52:20Z</time>
      </trkpt>
      <trkpt lat="43.54263" lon="6.26845">
        <ele>372.6</ele>
        <time>2017-01-29T11:52:28Z</time>
      </trkpt>
      <trkpt lat="43.54256" lon="6.26835">
        <ele>372.5</ele>
        <time>2017-01-29T11:52:35Z</time>
      </trkpt>
      <trkpt lat="43.54253" lon="6.26823">
        <ele>372.8</ele>
        <time>2017-01-29T11:52:43Z</time>
      </trkpt>
      <trkpt lat="43.54247" lon="6.26813">
        <ele>373</ele>
        <time>2017-01-29T11:52:51Z</time>
      </trkpt>
      <trkpt lat="43.54242" lon="6.26802">
        <ele>373.2</ele>
        <time>2017-01-29T11:53:01Z</time>
      </trkpt>
      <trkpt lat="43.54246" lon="6.2679">
        <ele>373.4</ele>
        <time>2017-01-29T11:53:19Z</time>
      </trkpt>
      <trkpt lat="43.54248" lon="6.26778">
        <ele>371.1</ele>
        <time>2017-01-29T11:53:46Z</time>
      </trkpt>
      <trkpt lat="43.54255" lon="6.26768">
        <ele>368.8</ele>
        <time>2017-01-29T11:54:04Z</time>
      </trkpt>
      <trkpt lat="43.54261" lon="6.26758">
        <ele>366.7</ele>
        <time>2017-01-29T11:54:24Z</time>
      </trkpt>
      <trkpt lat="43.54256" lon="6.26747">
        <ele>363.8</ele>
        <time>2017-01-29T11:55:00Z</time>
      </trkpt>
      <trkpt lat="43.54265" lon="6.26752">
        <ele>358.8</ele>
        <time>2017-01-29T11:55:46Z</time>
      </trkpt>
      <trkpt lat="43.54274" lon="6.26754">
        <ele>356.2</ele>
        <time>2017-01-29T11:56:03Z</time>
      </trkpt>
      <trkpt lat="43.54276" lon="6.26767">
        <ele>354.5</ele>
        <time>2017-01-29T11:56:15Z</time>
      </trkpt>
      <trkpt lat="43.54282" lon="6.26778">
        <ele>353</ele>
        <time>2017-01-29T11:56:27Z</time>
      </trkpt>
      <trkpt lat="43.54285" lon="6.2679">
        <ele>351.2</ele>
        <time>2017-01-29T11:56:40Z</time>
      </trkpt>
      <trkpt lat="43.5429" lon="6.26801">
        <ele>349.8</ele>
        <time>2017-01-29T11:56:54Z</time>
      </trkpt>
      <trkpt lat="43.54298" lon="6.26808">
        <ele>347.9</ele>
        <time>2017-01-29T11:57:23Z</time>
      </trkpt>
      <trkpt lat="43.54305" lon="6.268">
        <ele>347.5</ele>
        <time>2017-01-29T11:57:44Z</time>
      </trkpt>
      <trkpt lat="43.543" lon="6.26789">
        <ele>346.2</ele>
        <time>2017-01-29T11:58:22Z</time>
      </trkpt>
      <trkpt lat="43.543" lon="6.26777">
        <ele>344</ele>
        <time>2017-01-29T11:59:01Z</time>
      </trkpt>
      <trkpt lat="43.54303" lon="6.26764">
        <ele>342.6</ele>
        <time>2017-01-29T11:59:14Z</time>
      </trkpt>
      <trkpt lat="43.543" lon="6.26751">
        <ele>341.5</ele>
        <time>2017-01-29T11:59:26Z</time>
      </trkpt>
      <trkpt lat="43.54304" lon="6.26739">
        <ele>340.7</ele>
        <time>2017-01-29T11:59:35Z</time>
      </trkpt>
      <trkpt lat="43.54305" lon="6.26726">
        <ele>339.3</ele>
        <time>2017-01-29T11:59:46Z</time>
      </trkpt>
      <trkpt lat="43.54299" lon="6.26717">
        <ele>338.1</ele>
        <time>2017-01-29T11:59:57Z</time>
      </trkpt>
      <trkpt lat="43.54302" lon="6.26705">
        <ele>336.7</ele>
        <time>2017-01-29T12:00:10Z</time>
      </trkpt>
      <trkpt lat="43.54303" lon="6.26692">
        <ele>335.7</ele>
        <time>2017-01-29T12:00:21Z</time>
      </trkpt>
      <trkpt lat="43.54297" lon="6.26684">
        <ele>335</ele>
        <time>2017-01-29T12:00:29Z</time>
      </trkpt>
      <trkpt lat="43.54294" lon="6.26671">
        <ele>333.5</ele>
        <time>2017-01-29T12:00:48Z</time>
      </trkpt>
      <trkpt lat="43.5429" lon="6.2666">
        <ele>331</ele>
        <time>2017-01-29T12:01:10Z</time>
      </trkpt>
      <trkpt lat="43.54297" lon="6.26651">
        <ele>328.1</ele>
        <time>2017-01-29T12:01:33Z</time>
      </trkpt>
      <trkpt lat="43.54294" lon="6.26639">
        <ele>326.7</ele>
        <time>2017-01-29T12:01:55Z</time>
      </trkpt>
      <trkpt lat="43.54303" lon="6.26633">
        <ele>324</ele>
        <time>2017-01-29T12:02:44Z</time>
      </trkpt>
      <trkpt lat="43.54294" lon="6.2663">
        <ele>323.6</ele>
        <time>2017-01-29T12:02:54Z</time>
      </trkpt>
      <trkpt lat="43.54289" lon="6.26619">
        <ele>321</ele>
        <time>2017-01-29T12:03:28Z</time>
      </trkpt>
      <trkpt lat="43.54296" lon="6.26627">
        <ele>317.1</ele>
        <time>2017-01-29T12:04:07Z</time>
      </trkpt>
      <trkpt lat="43.54305" lon="6.26629">
        <ele>314.8</ele>
        <time>2017-01-29T12:04:31Z</time>
      </trkpt>
      <trkpt lat="43.54313" lon="6.26637">
        <ele>312.6</ele>
        <time>2017-01-29T12:04:58Z</time>
      </trkpt>
      <trkpt lat="43.54317" lon="6.26625">
        <ele>307.5</ele>
        <time>2017-01-29T12:05:55Z</time>
      </trkpt>
      <trkpt lat="43.54322" lon="6.26615">
        <ele>305.3</ele>
        <time>2017-01-29T12:06:21Z</time>
      </trkpt>
      <trkpt lat="43.54326" lon="6.26603">
        <ele>303.1</ele>
        <time>2017-01-29T12:06:58Z</time>
      </trkpt>
      <trkpt lat="43.54326" lon="6.26591">
        <ele>299.7</ele>
        <time>2017-01-29T12:07:46Z</time>
      </trkpt>
      <trkpt lat="43.54319" lon="6.26583">
        <ele>298.2</ele>
        <time>2017-01-29T12:08:09Z</time>
      </trkpt>
      <trkpt lat="43.54328" lon="6.26575">
        <ele>296.7</ele>
        <time>2017-01-29T12:08:25Z</time>
      </trkpt>
      <trkpt lat="43.5432" lon="6.26571">
        <ele>295</ele>
        <time>2017-01-29T12:08:52Z</time>
      </trkpt>
      <trkpt lat="43.54323" lon="6.26559">
        <ele>293.1</ele>
        <time>2017-01-29T12:09:16Z</time>
      </trkpt>
      <trkpt lat="43.5432" lon="6.26547">
        <ele>290.6</ele>
        <time>2017-01-29T12:09:35Z</time>
      </trkpt>
      <trkpt lat="43.54325" lon="6.26537">
        <ele>287.7</ele>
        <time>2017-01-29T12:10:01Z</time>
      </trkpt>
      <trkpt lat="43.54329" lon="6.26525">
        <ele>285.3</ele>
        <time>2017-01-29T12:10:16Z</time>
      </trkpt>
      <trkpt lat="43.54332" lon="6.26513">
        <ele>282.2</ele>
        <time>2017-01-29T12:10:44Z</time>
      </trkpt>
      <trkpt lat="43.54338" lon="6.26502">
        <ele>280.9</ele>
        <time>2017-01-29T12:11:04Z</time>
      </trkpt>
      <trkpt lat="43.54341" lon="6.26491">
        <ele>280.4</ele>
        <time>2017-01-29T12:11:20Z</time>
      </trkpt>
      <trkpt lat="43.54339" lon="6.26478">
        <ele>278.6</ele>
        <time>2017-01-29T12:11:43Z</time>
      </trkpt>
      <trkpt lat="43.54337" lon="6.26466">
        <ele>276.7</ele>
        <time>2017-01-29T12:11:59Z</time>
      </trkpt>
      <trkpt lat="43.54344" lon="6.26458">
        <ele>275.5</ele>
        <time>2017-01-29T12:12:12Z</time>
      </trkpt>
      <trkpt lat="43.54335" lon="6.26452">
        <ele>274.5</ele>
        <time>2017-01-29T12:12:25Z</time>
      </trkpt>
      <trkpt lat="43.54338" lon="6.26439">
        <ele>272.7</ele>
        <time>2017-01-29T12:12:45Z</time>
      </trkpt>
      <trkpt lat="43.54335" lon="6.26428">
        <ele>270.6</ele>
        <time>2017-01-29T12:13:16Z</time>
      </trkpt>
      <trkpt lat="43.54329" lon="6.26418">
        <ele>269.3</ele>
        <time>2017-01-29T12:13:48Z</time>
      </trkpt>
      <trkpt lat="43.54336" lon="6.26408">
        <ele>268.3</ele>
        <time>2017-01-29T12:14:02Z</time>
      </trkpt>
      <trkpt lat="43.54341" lon="6.26397">
        <ele>267.3</ele>
        <time>2017-01-29T12:14:14Z</time>
      </trkpt>
      <trkpt lat="43.54338" lon="6.26385">
        <ele>265.2</ele>
        <time>2017-01-29T12:14:30Z</time>
      </trkpt>
      <trkpt lat="43.54344" lon="6.26374">
        <ele>263.9</ele>
        <time>2017-01-29T12:14:39Z</time>
      </trkpt>
      <trkpt lat="43.54344" lon="6.26361">
        <ele>262.1</ele>
        <time>2017-01-29T12:14:50Z</time>
      </trkpt>
      <trkpt lat="43.54347" lon="6.26349">
        <ele>260.8</ele>
        <time>2017-01-29T12:15:02Z</time>
      </trkpt>
      <trkpt lat="43.54343" lon="6.26337">
        <ele>260.3</ele>
        <time>2017-01-29T12:15:10Z</time>
      </trkpt>
      <trkpt lat="43.54341" lon="6.26325">
        <ele>259.8</ele>
        <time>2017-01-29T12:15:20Z</time>
      </trkpt>
      <trkpt lat="43.54339" lon="6.26312">
        <ele>259.6</ele>
        <time>2017-01-29T12:15:30Z</time>
      </trkpt>
      <trkpt lat="43.54332" lon="6.26303">
        <ele>259.3</ele>
        <time>2017-01-29T12:15:40Z</time>
      </trkpt>
      <trkpt lat="43.54326" lon="6.26293">
        <ele>258.9</ele>
        <time>2017-01-29T12:15:48Z</time>
      </trkpt>
      <trkpt lat="43.54321" lon="6.26282">
        <ele>258.2</ele>
        <time>2017-01-29T12:15:59Z</time>
      </trkpt>
      <trkpt lat="43.5432" lon="6.26269">
        <ele>257.8</ele>
        <time>2017-01-29T12:16:09Z</time>
      </trkpt>
      <trkpt lat="43.54318" lon="6.26256">
        <ele>257.7</ele>
        <time>2017-01-29T12:16:16Z</time>
      </trkpt>
      <trkpt lat="43.54319" lon="6.26242">
        <ele>256.9</ele>
        <time>2017-01-29T12:16:25Z</time>
      </trkpt>
      <trkpt lat="43.54319" lon="6.26228">
        <ele>256.3</ele>
        <time>2017-01-29T12:16:33Z</time>
      </trkpt>
      <trkpt lat="43.54319" lon="6.26215">
        <ele>255.9</ele>
        <time>2017-01-29T12:16:44Z</time>
      </trkpt>
      <trkpt lat="43.54316" lon="6.26202">
        <ele>255.5</ele>
        <time>2017-01-29T12:16:52Z</time>
      </trkpt>
      <trkpt lat="43.54317" lon="6.26189">
        <ele>255.4</ele>
        <time>2017-01-29T12:16:59Z</time>
      </trkpt>
      <trkpt lat="43.54314" lon="6.26176">
        <ele>255.2</ele>
        <time>2017-01-29T12:17:08Z</time>
      </trkpt>
      <trkpt lat="43.5431" lon="6.26164">
        <ele>255</ele>
        <time>2017-01-29T12:17:18Z</time>
      </trkpt>
      <trkpt lat="43.5431" lon="6.26152">
        <ele>255</ele>
        <time>2017-01-29T12:17:26Z</time>
      </trkpt>
      <trkpt lat="43.54306" lon="6.26139">
        <ele>254.7</ele>
        <time>2017-01-29T12:17:35Z</time>
      </trkpt>
      <trkpt lat="43.54301" lon="6.26128">
        <ele>254.2</ele>
        <time>2017-01-29T12:17:45Z</time>
      </trkpt>
      <trkpt lat="43.54298" lon="6.26116">
        <ele>253.5</ele>
        <time>2017-01-29T12:17:54Z</time>
      </trkpt>
      <trkpt lat="43.54294" lon="6.26105">
        <ele>252.5</ele>
        <time>2017-01-29T12:18:03Z</time>
      </trkpt>
      <trkpt lat="43.54289" lon="6.26094">
        <ele>251.1</ele>
        <time>2017-01-29T12:18:21Z</time>
      </trkpt>
      <trkpt lat="43.54281" lon="6.26086">
        <ele>250.1</ele>
        <time>2017-01-29T12:18:32Z</time>
      </trkpt>
      <trkpt lat="43.54275" lon="6.26076">
        <ele>249</ele>
        <time>2017-01-29T12:18:43Z</time>
      </trkpt>
      <trkpt lat="43.54271" lon="6.26065">
        <ele>247.7</ele>
        <time>2017-01-29T12:18:56Z</time>
      </trkpt>
      <trkpt lat="43.54269" lon="6.26052">
        <ele>246.4</ele>
        <time>2017-01-29T12:19:08Z</time>
      </trkpt>
      <trkpt lat="43.54265" lon="6.26039">
        <ele>245.1</ele>
        <time>2017-01-29T12:19:20Z</time>
      </trkpt>
      <trkpt lat="43.54267" lon="6.26025">
        <ele>243.9</ele>
        <time>2017-01-29T12:19:30Z</time>
      </trkpt>
      <trkpt lat="43.54268" lon="6.26012">
        <ele>242.4</ele>
        <time>2017-01-29T12:19:40Z</time>
      </trkpt>
      <trkpt lat="43.5427" lon="6.26">
        <ele>240.8</ele>
        <time>2017-01-29T12:19:51Z</time>
      </trkpt>
      <trkpt lat="43.54274" lon="6.25989">
        <ele>239.7</ele>
        <time>2017-01-29T12:20:02Z</time>
      </trkpt>
      <trkpt lat="43.54278" lon="6.25976">
        <ele>238.8</ele>
        <time>2017-01-29T12:20:13Z</time>
      </trkpt>
      <trkpt lat="43.54282" lon="6.25964">
        <ele>238.1</ele>
        <time>2017-01-29T12:20:24Z</time>
      </trkpt>
      <trkpt lat="43.54287" lon="6.25954">
        <ele>237.6</ele>
        <time>2017-01-29T12:20:33Z</time>
      </trkpt>
      <trkpt lat="43.54292" lon="6.25944">
        <ele>237.3</ele>
        <time>2017-01-29T12:20:42Z</time>
      </trkpt>
      <trkpt lat="43.543" lon="6.25935">
        <ele>237.1</ele>
        <time>2017-01-29T12:20:53Z</time>
      </trkpt>
      <trkpt lat="43.54305" lon="6.25925">
        <ele>236.8</ele>
        <time>2017-01-29T12:21:03Z</time>
      </trkpt>
      <trkpt lat="43.5431" lon="6.25913">
        <ele>236.9</ele>
        <time>2017-01-29T12:21:23Z</time>
      </trkpt>
      <trkpt lat="43.54315" lon="6.25903">
        <ele>237.3</ele>
        <time>2017-01-29T12:21:32Z</time>
      </trkpt>
      <trkpt lat="43.54319" lon="6.2589">
        <ele>237.3</ele>
        <time>2017-01-29T12:21:40Z</time>
      </trkpt>
      <trkpt lat="43.54322" lon="6.25878">
        <ele>237.3</ele>
        <time>2017-01-29T12:21:48Z</time>
      </trkpt>
      <trkpt lat="43.54325" lon="6.25865">
        <ele>237.1</ele>
        <time>2017-01-29T12:21:56Z</time>
      </trkpt>
      <trkpt lat="43.54325" lon="6.25852">
        <ele>236.8</ele>
        <time>2017-01-29T12:22:05Z</time>
      </trkpt>
      <trkpt lat="43.54326" lon="6.25839">
        <ele>236.6</ele>
        <time>2017-01-29T12:22:16Z</time>
      </trkpt>
      <trkpt lat="43.54327" lon="6.25825">
        <ele>236.6</ele>
        <time>2017-01-29T12:22:27Z</time>
      </trkpt>
      <trkpt lat="43.54328" lon="6.25813">
        <ele>236.6</ele>
        <time>2017-01-29T12:22:38Z</time>
      </trkpt>
      <trkpt lat="43.54333" lon="6.25802">
        <ele>236.6</ele>
        <time>2017-01-29T12:22:46Z</time>
      </trkpt>
      <trkpt lat="43.54337" lon="6.2579">
        <ele>236.6</ele>
        <time>2017-01-29T12:22:58Z</time>
      </trkpt>
      <trkpt lat="43.54341" lon="6.25779">
        <ele>236.7</ele>
        <time>2017-01-29T12:23:06Z</time>
      </trkpt>
      <trkpt lat="43.54341" lon="6.25765">
        <ele>236.7</ele>
        <time>2017-01-29T12:23:14Z</time>
      </trkpt>
      <trkpt lat="43.54346" lon="6.25754">
        <ele>236.9</ele>
        <time>2017-01-29T12:23:24Z</time>
      </trkpt>
      <trkpt lat="43.54354" lon="6.25749">
        <ele>236</ele>
        <time>2017-01-29T12:23:34Z</time>
      </trkpt>
      <trkpt lat="43.54363" lon="6.25743">
        <ele>234.4</ele>
        <time>2017-01-29T12:23:48Z</time>
      </trkpt>
      <trkpt lat="43.54368" lon="6.25733">
        <ele>233.3</ele>
        <time>2017-01-29T12:23:57Z</time>
      </trkpt>
      <trkpt lat="43.54372" lon="6.25721">
        <ele>231.8</ele>
        <time>2017-01-29T12:24:09Z</time>
      </trkpt>
      <trkpt lat="43.54378" lon="6.2571">
        <ele>230.9</ele>
        <time>2017-01-29T12:24:17Z</time>
      </trkpt>
      <trkpt lat="43.54387" lon="6.25703">
        <ele>229.9</ele>
        <time>2017-01-29T12:24:25Z</time>
      </trkpt>
      <trkpt lat="43.54394" lon="6.25694">
        <ele>229.2</ele>
        <time>2017-01-29T12:24:33Z</time>
      </trkpt>
      <trkpt lat="43.54397" lon="6.25682">
        <ele>228.1</ele>
        <time>2017-01-29T12:24:48Z</time>
      </trkpt>
      <trkpt lat="43.54404" lon="6.25673">
        <ele>227.5</ele>
        <time>2017-01-29T12:24:59Z</time>
      </trkpt>
      <trkpt lat="43.54412" lon="6.25666">
        <ele>227</ele>
        <time>2017-01-29T12:25:07Z</time>
      </trkpt>
      <trkpt lat="43.54418" lon="6.25656">
        <ele>226.4</ele>
        <time>2017-01-29T12:25:14Z</time>
      </trkpt>
      <trkpt lat="43.54422" lon="6.25644">
        <ele>225.6</ele>
        <time>2017-01-29T12:25:24Z</time>
      </trkpt>
      <trkpt lat="43.54428" lon="6.25634">
        <ele>224.9</ele>
        <time>2017-01-29T12:25:32Z</time>
      </trkpt>
      <trkpt lat="43.54434" lon="6.25622">
        <ele>224.1</ele>
        <time>2017-01-29T12:25:41Z</time>
      </trkpt>
      <trkpt lat="43.54439" lon="6.25612">
        <ele>223.5</ele>
        <time>2017-01-29T12:25:51Z</time>
      </trkpt>
      <trkpt lat="43.54444" lon="6.25601">
        <ele>222.6</ele>
        <time>2017-01-29T12:26:02Z</time>
      </trkpt>
      <trkpt lat="43.54451" lon="6.25591">
        <ele>222.1</ele>
        <time>2017-01-29T12:26:09Z</time>
      </trkpt>
      <trkpt lat="43.54456" lon="6.25581">
        <ele>221.7</ele>
        <time>2017-01-29T12:26:16Z</time>
      </trkpt>
      <trkpt lat="43.54464" lon="6.25573">
        <ele>221.1</ele>
        <time>2017-01-29T12:26:22Z</time>
      </trkpt>
      <trkpt lat="43.54469" lon="6.25562">
        <ele>220.6</ele>
        <time>2017-01-29T12:26:30Z</time>
      </trkpt>
      <trkpt lat="43.54473" lon="6.25551">
        <ele>220.2</ele>
        <time>2017-01-29T12:26:38Z</time>
      </trkpt>
      <trkpt lat="43.54478" lon="6.25539">
        <ele>219.7</ele>
        <time>2017-01-29T12:26:46Z</time>
      </trkpt>
      <trkpt lat="43.54482" lon="6.25527">
        <ele>219.4</ele>
        <time>2017-01-29T12:26:54Z</time>
      </trkpt>
      <trkpt lat="43.54486" lon="6.25515">
        <ele>219</ele>
        <time>2017-01-29T12:27:04Z</time>
      </trkpt>
      <trkpt lat="43.54489" lon="6.25503">
        <ele>218.6</ele>
        <time>2017-01-29T12:27:14Z</time>
      </trkpt>
      <trkpt lat="43.54494" lon="6.25492">
        <ele>218.3</ele>
        <time>2017-01-29T12:27:22Z</time>
      </trkpt>
      <trkpt lat="43.54498" lon="6.25481">
        <ele>218</ele>
        <time>2017-01-29T12:27:31Z</time>
      </trkpt>
      <trkpt lat="43.54504" lon="6.25471">
        <ele>217.9</ele>
        <time>2017-01-29T12:27:41Z</time>
      </trkpt>
      <trkpt lat="43.54509" lon="6.25459">
        <ele>218</ele>
        <time>2017-01-29T12:27:50Z</time>
      </trkpt>
      <trkpt lat="43.54513" lon="6.25447">
        <ele>218.1</ele>
        <time>2017-01-29T12:28:00Z</time>
      </trkpt>
      <trkpt lat="43.54517" lon="6.25435">
        <ele>218</ele>
        <time>2017-01-29T12:28:08Z</time>
      </trkpt>
      <trkpt lat="43.54522" lon="6.25423">
        <ele>218</ele>
        <time>2017-01-29T12:28:16Z</time>
      </trkpt>
      <trkpt lat="43.54525" lon="6.25411">
        <ele>218</ele>
        <time>2017-01-29T12:28:23Z</time>
      </trkpt>
      <trkpt lat="43.54528" lon="6.25399">
        <ele>218</ele>
        <time>2017-01-29T12:28:32Z</time>
      </trkpt>
      <trkpt lat="43.54531" lon="6.25386">
        <ele>217.8</ele>
        <time>2017-01-29T12:28:40Z</time>
      </trkpt>
      <trkpt lat="43.54535" lon="6.25374">
        <ele>217.6</ele>
        <time>2017-01-29T12:28:49Z</time>
      </trkpt>
      <trkpt lat="43.54525" lon="6.25375">
        <ele>216.6</ele>
        <time>2017-01-29T12:29:15Z</time>
      </trkpt>
      <trkpt lat="43.54524" lon="6.25388">
        <ele>216.4</ele>
        <time>2017-01-29T12:29:25Z</time>
      </trkpt>
      <trkpt lat="43.54524" lon="6.25401">
        <ele>216.1</ele>
        <time>2017-01-29T12:29:37Z</time>
      </trkpt>
      <trkpt lat="43.54517" lon="6.25409">
        <ele>216.1</ele>
        <time>2017-01-29T12:29:46Z</time>
      </trkpt>
      <trkpt lat="43.5451" lon="6.25418">
        <ele>216.2</ele>
        <time>2017-01-29T12:29:58Z</time>
      </trkpt>
      <trkpt lat="43.54509" lon="6.25432">
        <ele>216.2</ele>
        <time>2017-01-29T12:30:08Z</time>
      </trkpt>
      <trkpt lat="43.54503" lon="6.25444">
        <ele>216.5</ele>
        <time>2017-01-29T12:30:17Z</time>
      </trkpt>
      <trkpt lat="43.54497" lon="6.25456">
        <ele>216.9</ele>
        <time>2017-01-29T12:30:26Z</time>
      </trkpt>
      <trkpt lat="43.54492" lon="6.25466">
        <ele>217.1</ele>
        <time>2017-01-29T12:30:35Z</time>
      </trkpt>
      <trkpt lat="43.54485" lon="6.25475">
        <ele>217.2</ele>
        <time>2017-01-29T12:30:43Z</time>
      </trkpt>
      <trkpt lat="43.54479" lon="6.25486">
        <ele>217.3</ele>
        <time>2017-01-29T12:30:53Z</time>
      </trkpt>
      <trkpt lat="43.54472" lon="6.25497">
        <ele>217.4</ele>
        <time>2017-01-29T12:31:02Z</time>
      </trkpt>
      <trkpt lat="43.54468" lon="6.25509">
        <ele>217.4</ele>
        <time>2017-01-29T12:31:12Z</time>
      </trkpt>
      <trkpt lat="43.54461" lon="6.2552">
        <ele>217.7</ele>
        <time>2017-01-29T12:31:21Z</time>
      </trkpt>
      <trkpt lat="43.54455" lon="6.25531">
        <ele>217.8</ele>
        <time>2017-01-29T12:31:29Z</time>
      </trkpt>
      <trkpt lat="43.54448" lon="6.2554">
        <ele>217.9</ele>
        <time>2017-01-29T12:31:36Z</time>
      </trkpt>
      <trkpt lat="43.54439" lon="6.25547">
        <ele>217.9</ele>
        <time>2017-01-29T12:31:44Z</time>
      </trkpt>
      <trkpt lat="43.54436" lon="6.25559">
        <ele>218</ele>
        <time>2017-01-29T12:31:52Z</time>
      </trkpt>
      <trkpt lat="43.54428" lon="6.25567">
        <ele>218.1</ele>
        <time>2017-01-29T12:32:03Z</time>
      </trkpt>
      <trkpt lat="43.5442" lon="6.25575">
        <ele>218.4</ele>
        <time>2017-01-29T12:32:12Z</time>
      </trkpt>
      <trkpt lat="43.54412" lon="6.25582">
        <ele>218.6</ele>
        <time>2017-01-29T12:32:20Z</time>
      </trkpt>
      <trkpt lat="43.54405" lon="6.25591">
        <ele>218.9</ele>
        <time>2017-01-29T12:32:28Z</time>
      </trkpt>
      <trkpt lat="43.544" lon="6.25604">
        <ele>219.1</ele>
        <time>2017-01-29T12:32:38Z</time>
      </trkpt>
      <trkpt lat="43.54396" lon="6.25615">
        <ele>219.2</ele>
        <time>2017-01-29T12:32:48Z</time>
      </trkpt>
      <trkpt lat="43.5439" lon="6.25626">
        <ele>219.3</ele>
        <time>2017-01-29T12:32:55Z</time>
      </trkpt>
      <trkpt lat="43.54382" lon="6.25633">
        <ele>219.5</ele>
        <time>2017-01-29T12:33:02Z</time>
      </trkpt>
      <trkpt lat="43.54375" lon="6.25642">
        <ele>219.5</ele>
        <time>2017-01-29T12:33:15Z</time>
      </trkpt>
      <trkpt lat="43.54367" lon="6.25649">
        <ele>219.5</ele>
        <time>2017-01-29T12:33:23Z</time>
      </trkpt>
      <trkpt lat="43.54358" lon="6.25654">
        <ele>219.6</ele>
        <time>2017-01-29T12:33:30Z</time>
      </trkpt>
      <trkpt lat="43.5435" lon="6.25658">
        <ele>219.6</ele>
        <time>2017-01-29T12:33:39Z</time>
      </trkpt>
      <trkpt lat="43.54341" lon="6.25664">
        <ele>219.8</ele>
        <time>2017-01-29T12:33:47Z</time>
      </trkpt>
      <trkpt lat="43.54334" lon="6.25672">
        <ele>219.9</ele>
        <time>2017-01-29T12:33:56Z</time>
      </trkpt>
      <trkpt lat="43.54327" lon="6.2568">
        <ele>219.8</ele>
        <time>2017-01-29T12:34:06Z</time>
      </trkpt>
      <trkpt lat="43.54319" lon="6.25685">
        <ele>219.8</ele>
        <time>2017-01-29T12:34:21Z</time>
      </trkpt>
      <trkpt lat="43.5431" lon="6.25687">
        <ele>219.8</ele>
        <time>2017-01-29T12:34:28Z</time>
      </trkpt>
      <trkpt lat="43.54301" lon="6.25687">
        <ele>219.8</ele>
        <time>2017-01-29T12:34:41Z</time>
      </trkpt>
      <trkpt lat="43.54291" lon="6.25689">
        <ele>220</ele>
        <time>2017-01-29T12:34:50Z</time>
      </trkpt>
      <trkpt lat="43.54282" lon="6.25691">
        <ele>220.1</ele>
        <time>2017-01-29T12:34:59Z</time>
      </trkpt>
      <trkpt lat="43.54273" lon="6.25693">
        <ele>220.1</ele>
        <time>2017-01-29T12:35:09Z</time>
      </trkpt>
      <trkpt lat="43.54264" lon="6.25693">
        <ele>220.1</ele>
        <time>2017-01-29T12:35:18Z</time>
      </trkpt>
      <trkpt lat="43.54255" lon="6.25697">
        <ele>220.2</ele>
        <time>2017-01-29T12:35:35Z</time>
      </trkpt>
      <trkpt lat="43.54245" lon="6.25699">
        <ele>220.2</ele>
        <time>2017-01-29T12:35:44Z</time>
      </trkpt>
      <trkpt lat="43.54236" lon="6.25698">
        <ele>220.2</ele>
        <time>2017-01-29T12:35:54Z</time>
      </trkpt>
      <trkpt lat="43.54227" lon="6.257">
        <ele>220.5</ele>
        <time>2017-01-29T12:36:04Z</time>
      </trkpt>
      <trkpt lat="43.54218" lon="6.25701">
        <ele>220.7</ele>
        <time>2017-01-29T12:36:11Z</time>
      </trkpt>
      <trkpt lat="43.54207" lon="6.25701">
        <ele>220.8</ele>
        <time>2017-01-29T12:36:22Z</time>
      </trkpt>
      <trkpt lat="43.54204" lon="6.25714">
        <ele>221.3</ele>
        <time>2017-01-29T12:36:33Z</time>
      </trkpt>
      <trkpt lat="43.54208" lon="6.25725">
        <ele>221.2</ele>
        <time>2017-01-29T12:36:44Z</time>
      </trkpt>
      <trkpt lat="43.54214" lon="6.25735">
        <ele>221</ele>
        <time>2017-01-29T12:36:52Z</time>
      </trkpt>
      <trkpt lat="43.54223" lon="6.25737">
        <ele>220.5</ele>
        <time>2017-01-29T12:37:08Z</time>
      </trkpt>
      <trkpt lat="43.54227" lon="6.25748">
        <ele>220.5</ele>
        <time>2017-01-29T12:37:17Z</time>
      </trkpt>
      <trkpt lat="43.54221" lon="6.25758">
        <ele>220.2</ele>
        <time>2017-01-29T12:37:31Z</time>
      </trkpt>
      <trkpt lat="43.54213" lon="6.25762">
        <ele>220.1</ele>
        <time>2017-01-29T12:37:44Z</time>
      </trkpt>
      <trkpt lat="43.54208" lon="6.25773">
        <ele>219.8</ele>
        <time>2017-01-29T12:38:35Z</time>
      </trkpt>
      <trkpt lat="43.54216" lon="6.2578">
        <ele>219.9</ele>
        <time>2017-01-29T12:38:45Z</time>
      </trkpt>
      <trkpt lat="43.54225" lon="6.2578">
        <ele>220</ele>
        <time>2017-01-29T12:38:59Z</time>
      </trkpt>
      <trkpt lat="43.5423" lon="6.25769">
        <ele>219.7</ele>
        <time>2017-01-29T12:39:28Z</time>
      </trkpt>
      <trkpt lat="43.54221" lon="6.25766">
        <ele>219.6</ele>
        <time>2017-01-29T12:39:47Z</time>
      </trkpt>
      <trkpt lat="43.54212" lon="6.25765">
        <ele>220.7</ele>
        <time>2017-01-29T12:40:35Z</time>
      </trkpt>
      <trkpt lat="43.54221" lon="6.25764">
        <ele>220</ele>
        <time>2017-01-29T12:44:18Z</time>
      </trkpt>
      <trkpt lat="43.54212" lon="6.25762">
        <ele>220</ele>
        <time>2017-01-29T12:45:40Z</time>
      </trkpt>
      <trkpt lat="43.54202" lon="6.2576">
        <ele>220.1</ele>
        <time>2017-01-29T12:45:54Z</time>
      </trkpt>
      <trkpt lat="43.54204" lon="6.25748">
        <ele>220.6</ele>
        <time>2017-01-29T12:46:11Z</time>
      </trkpt>
      <trkpt lat="43.54209" lon="6.25737">
        <ele>220.9</ele>
        <time>2017-01-29T12:46:18Z</time>
      </trkpt>
      <trkpt lat="43.54213" lon="6.25724">
        <ele>222.1</ele>
        <time>2017-01-29T12:46:29Z</time>
      </trkpt>
      <trkpt lat="43.54206" lon="6.25713">
        <ele>223.1</ele>
        <time>2017-01-29T12:46:39Z</time>
      </trkpt>
      <trkpt lat="43.54198" lon="6.25705">
        <ele>223.7</ele>
        <time>2017-01-29T12:46:46Z</time>
      </trkpt>
      <trkpt lat="43.54189" lon="6.25702">
        <ele>224.2</ele>
        <time>2017-01-29T12:46:55Z</time>
      </trkpt>
      <trkpt lat="43.5418" lon="6.25704">
        <ele>224.4</ele>
        <time>2017-01-29T12:47:01Z</time>
      </trkpt>
      <trkpt lat="43.54171" lon="6.25702">
        <ele>224.5</ele>
        <time>2017-01-29T12:47:07Z</time>
      </trkpt>
      <trkpt lat="43.54163" lon="6.25709">
        <ele>225</ele>
        <time>2017-01-29T12:47:41Z</time>
      </trkpt>
      <trkpt lat="43.54154" lon="6.2571">
        <ele>225.7</ele>
        <time>2017-01-29T12:51:23Z</time>
      </trkpt>
      <trkpt lat="43.54145" lon="6.25711">
        <ele>225.8</ele>
        <time>2017-01-29T12:51:31Z</time>
      </trkpt>
      <trkpt lat="43.54135" lon="6.25712">
        <ele>225.8</ele>
        <time>2017-01-29T12:51:40Z</time>
      </trkpt>
      <trkpt lat="43.54125" lon="6.25713">
        <ele>225.9</ele>
        <time>2017-01-29T12:51:50Z</time>
      </trkpt>
      <trkpt lat="43.54116" lon="6.25714">
        <ele>225.9</ele>
        <time>2017-01-29T12:52:01Z</time>
      </trkpt>
      <trkpt lat="43.54107" lon="6.25717">
        <ele>225.9</ele>
        <time>2017-01-29T12:52:15Z</time>
      </trkpt>
      <trkpt lat="43.54097" lon="6.25719">
        <ele>226.2</ele>
        <time>2017-01-29T12:52:23Z</time>
      </trkpt>
      <trkpt lat="43.54088" lon="6.25721">
        <ele>226.5</ele>
        <time>2017-01-29T12:52:34Z</time>
      </trkpt>
      <trkpt lat="43.54079" lon="6.25722">
        <ele>226.8</ele>
        <time>2017-01-29T12:52:43Z</time>
      </trkpt>
      <trkpt lat="43.5407" lon="6.25723">
        <ele>227</ele>
        <time>2017-01-29T12:52:52Z</time>
      </trkpt>
      <trkpt lat="43.54061" lon="6.25725">
        <ele>227.1</ele>
        <time>2017-01-29T12:52:59Z</time>
      </trkpt>
      <trkpt lat="43.54051" lon="6.25728">
        <ele>227.2</ele>
        <time>2017-01-29T12:53:05Z</time>
      </trkpt>
      <trkpt lat="43.54041" lon="6.25725">
        <ele>227.3</ele>
        <time>2017-01-29T12:53:11Z</time>
      </trkpt>
      <trkpt lat="43.54031" lon="6.25726">
        <ele>227.5</ele>
        <time>2017-01-29T12:53:19Z</time>
      </trkpt>
      <trkpt lat="43.54022" lon="6.25723">
        <ele>227.6</ele>
        <time>2017-01-29T12:53:27Z</time>
      </trkpt>
      <trkpt lat="43.54012" lon="6.25721">
        <ele>227.7</ele>
        <time>2017-01-29T12:53:36Z</time>
      </trkpt>
      <trkpt lat="43.54003" lon="6.25722">
        <ele>227.8</ele>
        <time>2017-01-29T12:53:44Z</time>
      </trkpt>
      <trkpt lat="43.53994" lon="6.25721">
        <ele>227.9</ele>
        <time>2017-01-29T12:53:52Z</time>
      </trkpt>
      <trkpt lat="43.53984" lon="6.25721">
        <ele>228.1</ele>
        <time>2017-01-29T12:54:01Z</time>
      </trkpt>
      <trkpt lat="43.53974" lon="6.25717">
        <ele>228.4</ele>
        <time>2017-01-29T12:54:11Z</time>
      </trkpt>
      <trkpt lat="43.53966" lon="6.25711">
        <ele>228.8</ele>
        <time>2017-01-29T12:54:21Z</time>
      </trkpt>
      <trkpt lat="43.5396" lon="6.25702">
        <ele>228.9</ele>
        <time>2017-01-29T12:54:29Z</time>
      </trkpt>
      <trkpt lat="43.53956" lon="6.25691">
        <ele>229.3</ele>
        <time>2017-01-29T12:54:38Z</time>
      </trkpt>
      <trkpt lat="43.53949" lon="6.25682">
        <ele>229.6</ele>
        <time>2017-01-29T12:54:47Z</time>
      </trkpt>
      <trkpt lat="43.53942" lon="6.25674">
        <ele>229.8</ele>
        <time>2017-01-29T12:54:57Z</time>
      </trkpt>
      <trkpt lat="43.53932" lon="6.25669">
        <ele>229.9</ele>
        <time>2017-01-29T12:55:05Z</time>
      </trkpt>
      <trkpt lat="43.53924" lon="6.25662">
        <ele>229.9</ele>
        <time>2017-01-29T12:55:13Z</time>
      </trkpt>
      <trkpt lat="43.53917" lon="6.25655">
        <ele>230</ele>
        <time>2017-01-29T12:55:22Z</time>
      </trkpt>
      <trkpt lat="43.5391" lon="6.25646">
        <ele>230</ele>
        <time>2017-01-29T12:55:30Z</time>
      </trkpt>
      <trkpt lat="43.53902" lon="6.25638">
        <ele>230</ele>
        <time>2017-01-29T12:55:38Z</time>
      </trkpt>
      <trkpt lat="43.53894" lon="6.25632">
        <ele>230.1</ele>
        <time>2017-01-29T12:55:46Z</time>
      </trkpt>
      <trkpt lat="43.53887" lon="6.25623">
        <ele>230.3</ele>
        <time>2017-01-29T12:55:56Z</time>
      </trkpt>
      <trkpt lat="43.53878" lon="6.25616">
        <ele>230.5</ele>
        <time>2017-01-29T12:56:04Z</time>
      </trkpt>
      <trkpt lat="43.5387" lon="6.2561">
        <ele>230.5</ele>
        <time>2017-01-29T12:56:13Z</time>
      </trkpt>
      <trkpt lat="43.53862" lon="6.25603">
        <ele>230.6</ele>
        <time>2017-01-29T12:56:21Z</time>
      </trkpt>
      <trkpt lat="43.53853" lon="6.25598">
        <ele>230.8</ele>
        <time>2017-01-29T12:56:30Z</time>
      </trkpt>
      <trkpt lat="43.53844" lon="6.25593">
        <ele>231</ele>
        <time>2017-01-29T12:56:37Z</time>
      </trkpt>
      <trkpt lat="43.53835" lon="6.25589">
        <ele>231.2</ele>
        <time>2017-01-29T12:56:45Z</time>
      </trkpt>
      <trkpt lat="43.53825" lon="6.25585">
        <ele>231.4</ele>
        <time>2017-01-29T12:56:52Z</time>
      </trkpt>
      <trkpt lat="43.53817" lon="6.25577">
        <ele>231.5</ele>
        <time>2017-01-29T12:57:01Z</time>
      </trkpt>
      <trkpt lat="43.53809" lon="6.25571">
        <ele>231.6</ele>
        <time>2017-01-29T12:57:10Z</time>
      </trkpt>
      <trkpt lat="43.53801" lon="6.25563">
        <ele>231.7</ele>
        <time>2017-01-29T12:57:20Z</time>
      </trkpt>
      <trkpt lat="43.53795" lon="6.25553">
        <ele>231.7</ele>
        <time>2017-01-29T12:57:28Z</time>
      </trkpt>
      <trkpt lat="43.5379" lon="6.25541">
        <ele>231.8</ele>
        <time>2017-01-29T12:57:36Z</time>
      </trkpt>
      <trkpt lat="43.53785" lon="6.25531">
        <ele>231.6</ele>
        <time>2017-01-29T12:57:46Z</time>
      </trkpt>
      <trkpt lat="43.5378" lon="6.25519">
        <ele>231.6</ele>
        <time>2017-01-29T12:57:54Z</time>
      </trkpt>
      <trkpt lat="43.53772" lon="6.2551">
        <ele>231.8</ele>
        <time>2017-01-29T12:58:02Z</time>
      </trkpt>
      <trkpt lat="43.53765" lon="6.25502">
        <ele>231.9</ele>
        <time>2017-01-29T12:58:09Z</time>
      </trkpt>
      <trkpt lat="43.53758" lon="6.25494">
        <ele>232</ele>
        <time>2017-01-29T12:58:15Z</time>
      </trkpt>
      <trkpt lat="43.53753" lon="6.25484">
        <ele>232.1</ele>
        <time>2017-01-29T12:58:23Z</time>
      </trkpt>
      <trkpt lat="43.5375" lon="6.25471">
        <ele>232.3</ele>
        <time>2017-01-29T12:58:31Z</time>
      </trkpt>
      <trkpt lat="43.53744" lon="6.25461">
        <ele>232.4</ele>
        <time>2017-01-29T12:58:40Z</time>
      </trkpt>
      <trkpt lat="43.53739" lon="6.25451">
        <ele>232.6</ele>
        <time>2017-01-29T12:58:49Z</time>
      </trkpt>
      <trkpt lat="43.53732" lon="6.25443">
        <ele>232.7</ele>
        <time>2017-01-29T12:59:03Z</time>
      </trkpt>
      <trkpt lat="43.53725" lon="6.25433">
        <ele>232.6</ele>
        <time>2017-01-29T12:59:11Z</time>
      </trkpt>
      <trkpt lat="43.53722" lon="6.25421">
        <ele>232.7</ele>
        <time>2017-01-29T12:59:18Z</time>
      </trkpt>
      <trkpt lat="43.53718" lon="6.25409">
        <ele>232.8</ele>
        <time>2017-01-29T12:59:27Z</time>
      </trkpt>
      <trkpt lat="43.53713" lon="6.25398">
        <ele>233.1</ele>
        <time>2017-01-29T12:59:35Z</time>
      </trkpt>
      <trkpt lat="43.53709" lon="6.25387">
        <ele>233.3</ele>
        <time>2017-01-29T12:59:43Z</time>
      </trkpt>
      <trkpt lat="43.53705" lon="6.25375">
        <ele>233.5</ele>
        <time>2017-01-29T12:59:51Z</time>
      </trkpt>
      <trkpt lat="43.53698" lon="6.25366">
        <ele>233.8</ele>
        <time>2017-01-29T13:00:00Z</time>
      </trkpt>
      <trkpt lat="43.53691" lon="6.25357">
        <ele>234.1</ele>
        <time>2017-01-29T13:00:08Z</time>
      </trkpt>
      <trkpt lat="43.53688" lon="6.25346">
        <ele>234.2</ele>
        <time>2017-01-29T13:00:17Z</time>
      </trkpt>
      <trkpt lat="43.53682" lon="6.25335">
        <ele>234.4</ele>
        <time>2017-01-29T13:00:26Z</time>
      </trkpt>
      <trkpt lat="43.53672" lon="6.25332">
        <ele>234.5</ele>
        <time>2017-01-29T13:00:43Z</time>
      </trkpt>
      <trkpt lat="43.53664" lon="6.25323">
        <ele>235.1</ele>
        <time>2017-01-29T13:01:14Z</time>
      </trkpt>
      <trkpt lat="43.53656" lon="6.25317">
        <ele>235.1</ele>
        <time>2017-01-29T13:01:24Z</time>
      </trkpt>
      <trkpt lat="43.53646" lon="6.25314">
        <ele>235.1</ele>
        <time>2017-01-29T13:01:28Z</time>
      </trkpt>
      <trkpt lat="43.53637" lon="6.25313">
        <ele>235.1</ele>
        <time>2017-01-29T13:01:33Z</time>
      </trkpt>
      <trkpt lat="43.53628" lon="6.25309">
        <ele>235.4</ele>
        <time>2017-01-29T13:01:42Z</time>
      </trkpt>
      <trkpt lat="43.53619" lon="6.25306">
        <ele>235.5</ele>
        <time>2017-01-29T13:01:47Z</time>
      </trkpt>
      <trkpt lat="43.5361" lon="6.25302">
        <ele>235.7</ele>
        <time>2017-01-29T13:01:54Z</time>
      </trkpt>
      <trkpt lat="43.536" lon="6.25301">
        <ele>235.9</ele>
        <time>2017-01-29T13:02:01Z</time>
      </trkpt>
      <trkpt lat="43.5359" lon="6.253">
        <ele>236.2</ele>
        <time>2017-01-29T13:02:10Z</time>
      </trkpt>
      <trkpt lat="43.5358" lon="6.253">
        <ele>236.5</ele>
        <time>2017-01-29T13:02:18Z</time>
      </trkpt>
      <trkpt lat="43.53571" lon="6.25301">
        <ele>236.7</ele>
        <time>2017-01-29T13:02:28Z</time>
      </trkpt>
      <trkpt lat="43.53561" lon="6.253">
        <ele>236.7</ele>
        <time>2017-01-29T13:02:34Z</time>
      </trkpt>
      <trkpt lat="43.53552" lon="6.25303">
        <ele>236.6</ele>
        <time>2017-01-29T13:02:44Z</time>
      </trkpt>
      <trkpt lat="43.53543" lon="6.25307">
        <ele>236.4</ele>
        <time>2017-01-29T13:02:52Z</time>
      </trkpt>
      <trkpt lat="43.53532" lon="6.25308">
        <ele>236.3</ele>
        <time>2017-01-29T13:02:59Z</time>
      </trkpt>
      <trkpt lat="43.53524" lon="6.25313">
        <ele>236.3</ele>
        <time>2017-01-29T13:03:07Z</time>
      </trkpt>
      <trkpt lat="43.53514" lon="6.25318">
        <ele>236.2</ele>
        <time>2017-01-29T13:03:14Z</time>
      </trkpt>
      <trkpt lat="43.53505" lon="6.25323">
        <ele>236.2</ele>
        <time>2017-01-29T13:03:21Z</time>
      </trkpt>
      <trkpt lat="43.53496" lon="6.25328">
        <ele>236.2</ele>
        <time>2017-01-29T13:03:30Z</time>
      </trkpt>
      <trkpt lat="43.53486" lon="6.25333">
        <ele>236.2</ele>
        <time>2017-01-29T13:03:36Z</time>
      </trkpt>
      <trkpt lat="43.53477" lon="6.25337">
        <ele>236.2</ele>
        <time>2017-01-29T13:03:43Z</time>
      </trkpt>
      <trkpt lat="43.53468" lon="6.25343">
        <ele>236.4</ele>
        <time>2017-01-29T13:03:54Z</time>
      </trkpt>
      <trkpt lat="43.53459" lon="6.25349">
        <ele>236.5</ele>
        <time>2017-01-29T13:04:04Z</time>
      </trkpt>
      <trkpt lat="43.5345" lon="6.25354">
        <ele>236.5</ele>
        <time>2017-01-29T13:04:12Z</time>
      </trkpt>
      <trkpt lat="43.53441" lon="6.25356">
        <ele>236.7</ele>
        <time>2017-01-29T13:04:21Z</time>
      </trkpt>
      <trkpt lat="43.53432" lon="6.25357">
        <ele>236.8</ele>
        <time>2017-01-29T13:04:28Z</time>
      </trkpt>
      <trkpt lat="43.53421" lon="6.25357">
        <ele>236.9</ele>
        <time>2017-01-29T13:04:36Z</time>
      </trkpt>
      <trkpt lat="43.53412" lon="6.25356">
        <ele>237.1</ele>
        <time>2017-01-29T13:04:45Z</time>
      </trkpt>
      <trkpt lat="43.53403" lon="6.25354">
        <ele>237.1</ele>
        <time>2017-01-29T13:04:55Z</time>
      </trkpt>
      <trkpt lat="43.53393" lon="6.25353">
        <ele>237.2</ele>
        <time>2017-01-29T13:05:02Z</time>
      </trkpt>
      <trkpt lat="43.53384" lon="6.25351">
        <ele>237.2</ele>
        <time>2017-01-29T13:05:08Z</time>
      </trkpt>
      <trkpt lat="43.53375" lon="6.2535">
        <ele>237.2</ele>
        <time>2017-01-29T13:05:15Z</time>
      </trkpt>
      <trkpt lat="43.53365" lon="6.25348">
        <ele>237.3</ele>
        <time>2017-01-29T13:05:22Z</time>
      </trkpt>
      <trkpt lat="43.53355" lon="6.25347">
        <ele>237.5</ele>
        <time>2017-01-29T13:05:32Z</time>
      </trkpt>
      <trkpt lat="43.53346" lon="6.25348">
        <ele>237.7</ele>
        <time>2017-01-29T13:05:39Z</time>
      </trkpt>
      <trkpt lat="43.53337" lon="6.25349">
        <ele>238</ele>
        <time>2017-01-29T13:05:45Z</time>
      </trkpt>
      <trkpt lat="43.53327" lon="6.25353">
        <ele>238.4</ele>
        <time>2017-01-29T13:05:55Z</time>
      </trkpt>
      <trkpt lat="43.53318" lon="6.25355">
        <ele>238.5</ele>
        <time>2017-01-29T13:06:04Z</time>
      </trkpt>
      <trkpt lat="43.53308" lon="6.2536">
        <ele>238.6</ele>
        <time>2017-01-29T13:06:11Z</time>
      </trkpt>
      <trkpt lat="43.53299" lon="6.25363">
        <ele>238.7</ele>
        <time>2017-01-29T13:06:20Z</time>
      </trkpt>
      <trkpt lat="43.53292" lon="6.25372">
        <ele>238.8</ele>
        <time>2017-01-29T13:06:28Z</time>
      </trkpt>
      <trkpt lat="43.53282" lon="6.25376">
        <ele>238.8</ele>
        <time>2017-01-29T13:06:34Z</time>
      </trkpt>
      <trkpt lat="43.53272" lon="6.25381">
        <ele>238.9</ele>
        <time>2017-01-29T13:06:41Z</time>
      </trkpt>
      <trkpt lat="43.53265" lon="6.25391">
        <ele>238.9</ele>
        <time>2017-01-29T13:06:49Z</time>
      </trkpt>
      <trkpt lat="43.53259" lon="6.254">
        <ele>238.9</ele>
        <time>2017-01-29T13:07:12Z</time>
      </trkpt>
      <trkpt lat="43.53251" lon="6.25407">
        <ele>238.9</ele>
        <time>2017-01-29T13:07:24Z</time>
      </trkpt>
      <trkpt lat="43.53246" lon="6.25418">
        <ele>239.1</ele>
        <time>2017-01-29T13:07:36Z</time>
      </trkpt>
      <trkpt lat="43.53242" lon="6.2543">
        <ele>239.2</ele>
        <time>2017-01-29T13:07:45Z</time>
      </trkpt>
      <trkpt lat="43.53236" lon="6.25441">
        <ele>239.2</ele>
        <time>2017-01-29T13:07:54Z</time>
      </trkpt>
      <trkpt lat="43.53232" lon="6.25453">
        <ele>239.3</ele>
        <time>2017-01-29T13:08:04Z</time>
      </trkpt>
      <trkpt lat="43.53228" lon="6.25464">
        <ele>239.5</ele>
        <time>2017-01-29T13:08:12Z</time>
      </trkpt>
      <trkpt lat="43.53226" lon="6.25478">
        <ele>239.6</ele>
        <time>2017-01-29T13:08:20Z</time>
      </trkpt>
      <trkpt lat="43.53222" lon="6.25489">
        <ele>239.7</ele>
        <time>2017-01-29T13:08:29Z</time>
      </trkpt>
      <trkpt lat="43.53216" lon="6.255">
        <ele>239.9</ele>
        <time>2017-01-29T13:08:39Z</time>
      </trkpt>
      <trkpt lat="43.53208" lon="6.25508">
        <ele>240.2</ele>
        <time>2017-01-29T13:08:50Z</time>
      </trkpt>
      <trkpt lat="43.53205" lon="6.25519">
        <ele>240.4</ele>
        <time>2017-01-29T13:08:59Z</time>
      </trkpt>
      <trkpt lat="43.532" lon="6.2553">
        <ele>240.4</ele>
        <time>2017-01-29T13:09:05Z</time>
      </trkpt>
      <trkpt lat="43.53197" lon="6.25542">
        <ele>240.4</ele>
        <time>2017-01-29T13:09:15Z</time>
      </trkpt>
      <trkpt lat="43.53194" lon="6.25555">
        <ele>240.3</ele>
        <time>2017-01-29T13:09:24Z</time>
      </trkpt>
      <trkpt lat="43.53192" lon="6.25568">
        <ele>240.3</ele>
        <time>2017-01-29T13:09:33Z</time>
      </trkpt>
      <trkpt lat="43.53189" lon="6.25581">
        <ele>240.4</ele>
        <time>2017-01-29T13:09:40Z</time>
      </trkpt>
      <trkpt lat="43.53186" lon="6.25593">
        <ele>240.5</ele>
        <time>2017-01-29T13:09:48Z</time>
      </trkpt>
      <trkpt lat="43.53183" lon="6.25605">
        <ele>240.6</ele>
        <time>2017-01-29T13:09:56Z</time>
      </trkpt>
      <trkpt lat="43.53178" lon="6.25617">
        <ele>240.7</ele>
        <time>2017-01-29T13:10:04Z</time>
      </trkpt>
      <trkpt lat="43.53173" lon="6.25628">
        <ele>240.6</ele>
        <time>2017-01-29T13:10:13Z</time>
      </trkpt>
      <trkpt lat="43.53169" lon="6.2564">
        <ele>240.7</ele>
        <time>2017-01-29T13:10:21Z</time>
      </trkpt>
      <trkpt lat="43.53166" lon="6.25654">
        <ele>241</ele>
        <time>2017-01-29T13:10:29Z</time>
      </trkpt>
      <trkpt lat="43.53159" lon="6.25663">
        <ele>241.3</ele>
        <time>2017-01-29T13:10:37Z</time>
      </trkpt>
      <trkpt lat="43.53156" lon="6.25676">
        <ele>241.5</ele>
        <time>2017-01-29T13:10:45Z</time>
      </trkpt>
      <trkpt lat="43.53154" lon="6.25689">
        <ele>241.6</ele>
        <time>2017-01-29T13:10:55Z</time>
      </trkpt>
      <trkpt lat="43.53154" lon="6.25703">
        <ele>241.7</ele>
        <time>2017-01-29T13:11:01Z</time>
      </trkpt>
      <trkpt lat="43.53152" lon="6.25716">
        <ele>241.7</ele>
        <time>2017-01-29T13:11:09Z</time>
      </trkpt>
      <trkpt lat="43.53151" lon="6.25729">
        <ele>241.6</ele>
        <time>2017-01-29T13:11:17Z</time>
      </trkpt>
      <trkpt lat="43.53153" lon="6.25742">
        <ele>241.6</ele>
        <time>2017-01-29T13:11:25Z</time>
      </trkpt>
      <trkpt lat="43.53154" lon="6.25754">
        <ele>241.6</ele>
        <time>2017-01-29T13:11:32Z</time>
      </trkpt>
      <trkpt lat="43.53154" lon="6.25768">
        <ele>241.7</ele>
        <time>2017-01-29T13:11:41Z</time>
      </trkpt>
      <trkpt lat="43.53156" lon="6.25781">
        <ele>241.7</ele>
        <time>2017-01-29T13:11:49Z</time>
      </trkpt>
      <trkpt lat="43.53158" lon="6.25794">
        <ele>241.8</ele>
        <time>2017-01-29T13:11:58Z</time>
      </trkpt>
      <trkpt lat="43.5316" lon="6.25808">
        <ele>242.1</ele>
        <time>2017-01-29T13:12:08Z</time>
      </trkpt>
      <trkpt lat="43.53158" lon="6.25821">
        <ele>242.2</ele>
        <time>2017-01-29T13:12:18Z</time>
      </trkpt>
      <trkpt lat="43.5316" lon="6.25833">
        <ele>242.3</ele>
        <time>2017-01-29T13:12:27Z</time>
      </trkpt>
      <trkpt lat="43.5316" lon="6.25846">
        <ele>242.6</ele>
        <time>2017-01-29T13:12:37Z</time>
      </trkpt>
      <trkpt lat="43.53162" lon="6.25858">
        <ele>242.7</ele>
        <time>2017-01-29T13:12:44Z</time>
      </trkpt>
      <trkpt lat="43.53166" lon="6.2587">
        <ele>242.6</ele>
        <time>2017-01-29T13:12:53Z</time>
      </trkpt>
      <trkpt lat="43.53168" lon="6.25883">
        <ele>242.7</ele>
        <time>2017-01-29T13:13:03Z</time>
      </trkpt>
      <trkpt lat="43.53172" lon="6.25897">
        <ele>242.7</ele>
        <time>2017-01-29T13:13:11Z</time>
      </trkpt>
      <trkpt lat="43.53175" lon="6.25909">
        <ele>242.7</ele>
        <time>2017-01-29T13:13:20Z</time>
      </trkpt>
      <trkpt lat="43.53175" lon="6.25922">
        <ele>242.9</ele>
        <time>2017-01-29T13:13:37Z</time>
      </trkpt>
      <trkpt lat="43.53172" lon="6.25935">
        <ele>242.9</ele>
        <time>2017-01-29T13:13:58Z</time>
      </trkpt>
      <trkpt lat="43.53171" lon="6.25948">
        <ele>243</ele>
        <time>2017-01-29T13:14:07Z</time>
      </trkpt>
      <trkpt lat="43.53174" lon="6.25961">
        <ele>243.3</ele>
        <time>2017-01-29T13:14:17Z</time>
      </trkpt>
      <trkpt lat="43.53175" lon="6.25973">
        <ele>243.5</ele>
        <time>2017-01-29T13:14:30Z</time>
      </trkpt>
      <trkpt lat="43.5318" lon="6.25986">
        <ele>243.5</ele>
        <time>2017-01-29T13:14:43Z</time>
      </trkpt>
      <trkpt lat="43.53182" lon="6.25999">
        <ele>243.5</ele>
        <time>2017-01-29T13:14:51Z</time>
      </trkpt>
      <trkpt lat="43.53179" lon="6.26011">
        <ele>243.6</ele>
        <time>2017-01-29T13:15:01Z</time>
      </trkpt>
      <trkpt lat="43.53176" lon="6.26024">
        <ele>243.6</ele>
        <time>2017-01-29T13:15:10Z</time>
      </trkpt>
      <trkpt lat="43.53175" lon="6.26037">
        <ele>243.5</ele>
        <time>2017-01-29T13:15:19Z</time>
      </trkpt>
      <trkpt lat="43.53174" lon="6.26049">
        <ele>243.5</ele>
        <time>2017-01-29T13:15:28Z</time>
      </trkpt>
      <trkpt lat="43.53174" lon="6.26063">
        <ele>243.5</ele>
        <time>2017-01-29T13:15:37Z</time>
      </trkpt>
      <trkpt lat="43.53176" lon="6.26076">
        <ele>243.6</ele>
        <time>2017-01-29T13:15:45Z</time>
      </trkpt>
      <trkpt lat="43.53176" lon="6.2609">
        <ele>244</ele>
        <time>2017-01-29T13:15:57Z</time>
      </trkpt>
      <trkpt lat="43.53179" lon="6.26103">
        <ele>244.2</ele>
        <time>2017-01-29T13:16:05Z</time>
      </trkpt>
      <trkpt lat="43.53176" lon="6.26116">
        <ele>244.2</ele>
        <time>2017-01-29T13:16:15Z</time>
      </trkpt>
      <trkpt lat="43.53175" lon="6.26131">
        <ele>244.3</ele>
        <time>2017-01-29T13:16:23Z</time>
      </trkpt>
      <trkpt lat="43.53174" lon="6.26144">
        <ele>244.3</ele>
        <time>2017-01-29T13:16:30Z</time>
      </trkpt>
      <trkpt lat="43.53177" lon="6.26156">
        <ele>244.4</ele>
        <time>2017-01-29T13:16:38Z</time>
      </trkpt>
      <trkpt lat="43.5318" lon="6.26169">
        <ele>244.6</ele>
        <time>2017-01-29T13:16:45Z</time>
      </trkpt>
      <trkpt lat="43.53183" lon="6.26183">
        <ele>244.8</ele>
        <time>2017-01-29T13:16:53Z</time>
      </trkpt>
      <trkpt lat="43.53184" lon="6.26195">
        <ele>245</ele>
        <time>2017-01-29T13:17:02Z</time>
      </trkpt>
      <trkpt lat="43.53185" lon="6.26208">
        <ele>245.1</ele>
        <time>2017-01-29T13:17:10Z</time>
      </trkpt>
      <trkpt lat="43.53181" lon="6.26221">
        <ele>245.2</ele>
        <time>2017-01-29T13:17:21Z</time>
      </trkpt>
      <trkpt lat="43.5318" lon="6.26233">
        <ele>245.2</ele>
        <time>2017-01-29T13:17:30Z</time>
      </trkpt>
      <trkpt lat="43.53178" lon="6.26246">
        <ele>245.2</ele>
        <time>2017-01-29T13:17:40Z</time>
      </trkpt>
      <trkpt lat="43.53179" lon="6.26259">
        <ele>245.2</ele>
        <time>2017-01-29T13:17:48Z</time>
      </trkpt>
      <trkpt lat="43.5318" lon="6.26272">
        <ele>245.2</ele>
        <time>2017-01-29T13:17:56Z</time>
      </trkpt>
      <trkpt lat="43.53178" lon="6.26286">
        <ele>245.2</ele>
        <time>2017-01-29T13:18:09Z</time>
      </trkpt>
      <trkpt lat="43.5318" lon="6.263">
        <ele>245.2</ele>
        <time>2017-01-29T13:18:17Z</time>
      </trkpt>
      <trkpt lat="43.53182" lon="6.26313">
        <ele>245.2</ele>
        <time>2017-01-29T13:18:26Z</time>
      </trkpt>
      <trkpt lat="43.53184" lon="6.26326">
        <ele>245.2</ele>
        <time>2017-01-29T13:18:37Z</time>
      </trkpt>
      <trkpt lat="43.53182" lon="6.26339">
        <ele>245.1</ele>
        <time>2017-01-29T13:18:51Z</time>
      </trkpt>
      <trkpt lat="43.53184" lon="6.26352">
        <ele>245.1</ele>
        <time>2017-01-29T13:18:57Z</time>
      </trkpt>
      <trkpt lat="43.53185" lon="6.26365">
        <ele>245.1</ele>
        <time>2017-01-29T13:19:07Z</time>
      </trkpt>
      <trkpt lat="43.53182" lon="6.26377">
        <ele>245</ele>
        <time>2017-01-29T13:19:17Z</time>
      </trkpt>
      <trkpt lat="43.53177" lon="6.26389">
        <ele>245</ele>
        <time>2017-01-29T13:19:27Z</time>
      </trkpt>
      <trkpt lat="43.53176" lon="6.26402">
        <ele>245.1</ele>
        <time>2017-01-29T13:19:34Z</time>
      </trkpt>
      <trkpt lat="43.53174" lon="6.26414">
        <ele>245.2</ele>
        <time>2017-01-29T13:19:42Z</time>
      </trkpt>
      <trkpt lat="43.53172" lon="6.26427">
        <ele>245.2</ele>
        <time>2017-01-29T13:19:50Z</time>
      </trkpt>
      <trkpt lat="43.5317" lon="6.26439">
        <ele>245.3</ele>
        <time>2017-01-29T13:19:58Z</time>
      </trkpt>
      <trkpt lat="43.53163" lon="6.26448">
        <ele>245.3</ele>
        <time>2017-01-29T13:20:05Z</time>
      </trkpt>
      <trkpt lat="43.53156" lon="6.26456">
        <ele>245.6</ele>
        <time>2017-01-29T13:20:12Z</time>
      </trkpt>
      <trkpt lat="43.53149" lon="6.26464">
        <ele>245.9</ele>
        <time>2017-01-29T13:20:20Z</time>
      </trkpt>
      <trkpt lat="43.53142" lon="6.26472">
        <ele>246.1</ele>
        <time>2017-01-29T13:20:28Z</time>
      </trkpt>
      <trkpt lat="43.53134" lon="6.2648">
        <ele>246.1</ele>
        <time>2017-01-29T13:20:36Z</time>
      </trkpt>
      <trkpt lat="43.53127" lon="6.26486">
        <ele>246.3</ele>
        <time>2017-01-29T13:20:57Z</time>
      </trkpt>
      <trkpt lat="43.53125" lon="6.2649">
        <ele>246.4</ele>
        <time>2017-01-29T13:21:37Z</time>
      </trkpt>
      <trkpt lat="43.53121" lon="6.26502">
        <ele>247</ele>
        <time>2017-01-29T13:22:11Z</time>
      </trkpt>
      <trkpt lat="43.53112" lon="6.26506">
        <ele>247.4</ele>
        <time>2017-01-29T13:22:20Z</time>
      </trkpt>
      <trkpt lat="43.53103" lon="6.26508">
        <ele>247.5</ele>
        <time>2017-01-29T13:22:29Z</time>
      </trkpt>
      <trkpt lat="43.53094" lon="6.26514">
        <ele>248.3</ele>
        <time>2017-01-29T13:22:50Z</time>
      </trkpt>
      <trkpt lat="43.53103" lon="6.26519">
        <ele>248.8</ele>
        <time>2017-01-29T13:23:11Z</time>
      </trkpt>
      <trkpt lat="43.53095" lon="6.26514">
        <ele>248.6</ele>
        <time>2017-01-29T13:23:25Z</time>
      </trkpt>
      <trkpt lat="43.53085" lon="6.26514">
        <ele>248.5</ele>
        <time>2017-01-29T13:23:33Z</time>
      </trkpt>
      <trkpt lat="43.53075" lon="6.26516">
        <ele>248.7</ele>
        <time>2017-01-29T13:23:43Z</time>
      </trkpt>
      <trkpt lat="43.53066" lon="6.26518">
        <ele>249.1</ele>
        <time>2017-01-29T13:23:54Z</time>
      </trkpt>
      <trkpt lat="43.53056" lon="6.26517">
        <ele>249.3</ele>
        <time>2017-01-29T13:24:03Z</time>
      </trkpt>
      <trkpt lat="43.53046" lon="6.26515">
        <ele>249.7</ele>
        <time>2017-01-29T13:24:13Z</time>
      </trkpt>
      <trkpt lat="43.53037" lon="6.26515">
        <ele>250</ele>
        <time>2017-01-29T13:24:20Z</time>
      </trkpt>
      <trkpt lat="43.53027" lon="6.26515">
        <ele>250.3</ele>
        <time>2017-01-29T13:24:27Z</time>
      </trkpt>
      <trkpt lat="43.53018" lon="6.2651">
        <ele>250.5</ele>
        <time>2017-01-29T13:24:34Z</time>
      </trkpt>
      <trkpt lat="43.53008" lon="6.26514">
        <ele>250.8</ele>
        <time>2017-01-29T13:24:43Z</time>
      </trkpt>
      <trkpt lat="43.52999" lon="6.26514">
        <ele>251.1</ele>
        <time>2017-01-29T13:24:52Z</time>
      </trkpt>
      <trkpt lat="43.52989" lon="6.26517">
        <ele>251.3</ele>
        <time>2017-01-29T13:25:01Z</time>
      </trkpt>
      <trkpt lat="43.5298" lon="6.26513">
        <ele>251.3</ele>
        <time>2017-01-29T13:25:06Z</time>
      </trkpt>
      <trkpt lat="43.52971" lon="6.26516">
        <ele>251.4</ele>
        <time>2017-01-29T13:25:15Z</time>
      </trkpt>
      <trkpt lat="43.5296" lon="6.26517">
        <ele>251.6</ele>
        <time>2017-01-29T13:25:20Z</time>
      </trkpt>
      <trkpt lat="43.52951" lon="6.26519">
        <ele>251.3</ele>
        <time>2017-01-29T13:25:29Z</time>
      </trkpt>
      <trkpt lat="43.52941" lon="6.26521">
        <ele>251.6</ele>
        <time>2017-01-29T13:25:38Z</time>
      </trkpt>
      <trkpt lat="43.52931" lon="6.26526">
        <ele>251.9</ele>
        <time>2017-01-29T13:25:49Z</time>
      </trkpt>
      <trkpt lat="43.52922" lon="6.26533">
        <ele>252.3</ele>
        <time>2017-01-29T13:25:55Z</time>
      </trkpt>
      <trkpt lat="43.52912" lon="6.26536">
        <ele>252.8</ele>
        <time>2017-01-29T13:26:03Z</time>
      </trkpt>
      <trkpt lat="43.52903" lon="6.26541">
        <ele>253.4</ele>
        <time>2017-01-29T13:26:13Z</time>
      </trkpt>
      <trkpt lat="43.52893" lon="6.26546">
        <ele>253.7</ele>
        <time>2017-01-29T13:26:20Z</time>
      </trkpt>
      <trkpt lat="43.52885" lon="6.26554">
        <ele>254.1</ele>
        <time>2017-01-29T13:26:28Z</time>
      </trkpt>
      <trkpt lat="43.52879" lon="6.26565">
        <ele>254.5</ele>
        <time>2017-01-29T13:26:37Z</time>
      </trkpt>
      <trkpt lat="43.52873" lon="6.26575">
        <ele>254.7</ele>
        <time>2017-01-29T13:26:43Z</time>
      </trkpt>
      <trkpt lat="43.52865" lon="6.2658">
        <ele>254.8</ele>
        <time>2017-01-29T13:26:50Z</time>
      </trkpt>
      <trkpt lat="43.52861" lon="6.26593">
        <ele>255.3</ele>
        <time>2017-01-29T13:26:57Z</time>
      </trkpt>
      <trkpt lat="43.52859" lon="6.26606">
        <ele>255.6</ele>
        <time>2017-01-29T13:27:09Z</time>
      </trkpt>
      <trkpt lat="43.52852" lon="6.26615">
        <ele>255.7</ele>
        <time>2017-01-29T13:27:18Z</time>
      </trkpt>
      <trkpt lat="43.52848" lon="6.26626">
        <ele>256.3</ele>
        <time>2017-01-29T13:27:30Z</time>
      </trkpt>
      <trkpt lat="43.52843" lon="6.26637">
        <ele>256.6</ele>
        <time>2017-01-29T13:27:41Z</time>
      </trkpt>
      <trkpt lat="43.52837" lon="6.26646">
        <ele>256.8</ele>
        <time>2017-01-29T13:27:50Z</time>
      </trkpt>
      <trkpt lat="43.52834" lon="6.26658">
        <ele>257.1</ele>
        <time>2017-01-29T13:28:00Z</time>
      </trkpt>
      <trkpt lat="43.52831" lon="6.2667">
        <ele>257.3</ele>
        <time>2017-01-29T13:28:09Z</time>
      </trkpt>
      <trkpt lat="43.52828" lon="6.26683">
        <ele>257.5</ele>
        <time>2017-01-29T13:28:18Z</time>
      </trkpt>
      <trkpt lat="43.52823" lon="6.26694">
        <ele>257.7</ele>
        <time>2017-01-29T13:28:26Z</time>
      </trkpt>
      <trkpt lat="43.52817" lon="6.26704">
        <ele>258</ele>
        <time>2017-01-29T13:28:36Z</time>
      </trkpt>
      <trkpt lat="43.52814" lon="6.26716">
        <ele>258.1</ele>
        <time>2017-01-29T13:28:46Z</time>
      </trkpt>
      <trkpt lat="43.52807" lon="6.26726">
        <ele>258.2</ele>
        <time>2017-01-29T13:28:53Z</time>
      </trkpt>
      <trkpt lat="43.52802" lon="6.26737">
        <ele>258.5</ele>
        <time>2017-01-29T13:29:02Z</time>
      </trkpt>
      <trkpt lat="43.52798" lon="6.26749">
        <ele>258.7</ele>
        <time>2017-01-29T13:29:10Z</time>
      </trkpt>
      <trkpt lat="43.52797" lon="6.26762">
        <ele>259.1</ele>
        <time>2017-01-29T13:29:20Z</time>
      </trkpt>
      <trkpt lat="43.52792" lon="6.26772">
        <ele>259.4</ele>
        <time>2017-01-29T13:29:30Z</time>
      </trkpt>
      <trkpt lat="43.52785" lon="6.26782">
        <ele>259.5</ele>
        <time>2017-01-29T13:29:39Z</time>
      </trkpt>
      <trkpt lat="43.52778" lon="6.26792">
        <ele>260.1</ele>
        <time>2017-01-29T13:29:48Z</time>
      </trkpt>
      <trkpt lat="43.52773" lon="6.26802">
        <ele>260.5</ele>
        <time>2017-01-29T13:29:57Z</time>
      </trkpt>
      <trkpt lat="43.52765" lon="6.2681">
        <ele>260.9</ele>
        <time>2017-01-29T13:30:06Z</time>
      </trkpt>
      <trkpt lat="43.52758" lon="6.26819">
        <ele>261.1</ele>
        <time>2017-01-29T13:30:17Z</time>
      </trkpt>
      <trkpt lat="43.52752" lon="6.26829">
        <ele>261.5</ele>
        <time>2017-01-29T13:30:29Z</time>
      </trkpt>
      <trkpt lat="43.52743" lon="6.26835">
        <ele>261.7</ele>
        <time>2017-01-29T13:30:38Z</time>
      </trkpt>
      <trkpt lat="43.52736" lon="6.26844">
        <ele>261.8</ele>
        <time>2017-01-29T13:30:47Z</time>
      </trkpt>
      <trkpt lat="43.52727" lon="6.26851">
        <ele>262</ele>
        <time>2017-01-29T13:30:57Z</time>
      </trkpt>
      <trkpt lat="43.52719" lon="6.26855">
        <ele>262.5</ele>
        <time>2017-01-29T13:31:09Z</time>
      </trkpt>
      <trkpt lat="43.5271" lon="6.26863">
        <ele>262.7</ele>
        <time>2017-01-29T13:31:17Z</time>
      </trkpt>
      <trkpt lat="43.52702" lon="6.26869">
        <ele>262.9</ele>
        <time>2017-01-29T13:31:24Z</time>
      </trkpt>
      <trkpt lat="43.52695" lon="6.26876">
        <ele>263.4</ele>
        <time>2017-01-29T13:31:34Z</time>
      </trkpt>
      <trkpt lat="43.52686" lon="6.26882">
        <ele>263.7</ele>
        <time>2017-01-29T13:31:44Z</time>
      </trkpt>
      <trkpt lat="43.52678" lon="6.26887">
        <ele>264.1</ele>
        <time>2017-01-29T13:31:53Z</time>
      </trkpt>
      <trkpt lat="43.5267" lon="6.26895">
        <ele>264.8</ele>
        <time>2017-01-29T13:32:02Z</time>
      </trkpt>
      <trkpt lat="43.52661" lon="6.269">
        <ele>265.2</ele>
        <time>2017-01-29T13:32:11Z</time>
      </trkpt>
      <trkpt lat="43.52652" lon="6.26902">
        <ele>265.6</ele>
        <time>2017-01-29T13:32:23Z</time>
      </trkpt>
      <trkpt lat="43.52644" lon="6.26909">
        <ele>265.7</ele>
        <time>2017-01-29T13:32:31Z</time>
      </trkpt>
      <trkpt lat="43.52635" lon="6.26907">
        <ele>265.8</ele>
        <time>2017-01-29T13:32:38Z</time>
      </trkpt>
      <trkpt lat="43.52626" lon="6.2691">
        <ele>265.9</ele>
        <time>2017-01-29T13:32:48Z</time>
      </trkpt>
      <trkpt lat="43.52616" lon="6.26916">
        <ele>266.1</ele>
        <time>2017-01-29T13:32:59Z</time>
      </trkpt>
      <trkpt lat="43.52608" lon="6.26923">
        <ele>266.4</ele>
        <time>2017-01-29T13:33:09Z</time>
      </trkpt>
      <trkpt lat="43.52601" lon="6.26932">
        <ele>266.9</ele>
        <time>2017-01-29T13:33:21Z</time>
      </trkpt>
      <trkpt lat="43.52592" lon="6.26938">
        <ele>267.2</ele>
        <time>2017-01-29T13:33:30Z</time>
      </trkpt>
      <trkpt lat="43.52585" lon="6.26947">
        <ele>267.6</ele>
        <time>2017-01-29T13:33:38Z</time>
      </trkpt>
      <trkpt lat="43.52578" lon="6.26957">
        <ele>267.8</ele>
        <time>2017-01-29T13:33:47Z</time>
      </trkpt>
      <trkpt lat="43.52572" lon="6.26967">
        <ele>268.1</ele>
        <time>2017-01-29T13:33:56Z</time>
      </trkpt>
      <trkpt lat="43.52565" lon="6.26975">
        <ele>268.3</ele>
        <time>2017-01-29T13:34:05Z</time>
      </trkpt>
      <trkpt lat="43.5256" lon="6.26986">
        <ele>268.6</ele>
        <time>2017-01-29T13:34:15Z</time>
      </trkpt>
      <trkpt lat="43.52554" lon="6.26996">
        <ele>268.9</ele>
        <time>2017-01-29T13:34:24Z</time>
      </trkpt>
      <trkpt lat="43.5255" lon="6.27007">
        <ele>269.2</ele>
        <time>2017-01-29T13:34:33Z</time>
      </trkpt>
      <trkpt lat="43.52546" lon="6.27021">
        <ele>269.5</ele>
        <time>2017-01-29T13:34:42Z</time>
      </trkpt>
      <trkpt lat="43.52542" lon="6.27032">
        <ele>269.8</ele>
        <time>2017-01-29T13:34:52Z</time>
      </trkpt>
      <trkpt lat="43.52542" lon="6.27044">
        <ele>269.9</ele>
        <time>2017-01-29T13:35:00Z</time>
      </trkpt>
      <trkpt lat="43.5254" lon="6.27057">
        <ele>270.1</ele>
        <time>2017-01-29T13:35:10Z</time>
      </trkpt>
      <trkpt lat="43.52542" lon="6.2707">
        <ele>270.5</ele>
        <time>2017-01-29T13:35:18Z</time>
      </trkpt>
      <trkpt lat="43.52537" lon="6.27081">
        <ele>270.9</ele>
        <time>2017-01-29T13:35:31Z</time>
      </trkpt>
      <trkpt lat="43.52531" lon="6.27094">
        <ele>271.1</ele>
        <time>2017-01-29T13:36:23Z</time>
      </trkpt>
      <trkpt lat="43.52535" lon="6.27106">
        <ele>271.1</ele>
        <time>2017-01-29T13:36:30Z</time>
      </trkpt>
      <trkpt lat="43.52539" lon="6.27119">
        <ele>271.1</ele>
        <time>2017-01-29T13:36:37Z</time>
      </trkpt>
      <trkpt lat="43.52542" lon="6.27131">
        <ele>271.1</ele>
        <time>2017-01-29T13:36:43Z</time>
      </trkpt>
      <trkpt lat="43.52547" lon="6.27144">
        <ele>271.1</ele>
        <time>2017-01-29T13:36:49Z</time>
      </trkpt>
      <trkpt lat="43.52553" lon="6.27154">
        <ele>271.1</ele>
        <time>2017-01-29T13:36:56Z</time>
      </trkpt>
      <trkpt lat="43.52555" lon="6.27167">
        <ele>271.1</ele>
        <time>2017-01-29T13:37:03Z</time>
      </trkpt>
      <trkpt lat="43.52556" lon="6.2718">
        <ele>271</ele>
        <time>2017-01-29T13:37:09Z</time>
      </trkpt>
      <trkpt lat="43.52561" lon="6.27191">
        <ele>271.2</ele>
        <time>2017-01-29T13:37:20Z</time>
      </trkpt>
      <trkpt lat="43.52559" lon="6.27204">
        <ele>271.3</ele>
        <time>2017-01-29T13:37:29Z</time>
      </trkpt>
      <trkpt lat="43.52562" lon="6.27216">
        <ele>271.4</ele>
        <time>2017-01-29T13:37:37Z</time>
      </trkpt>
      <trkpt lat="43.52567" lon="6.27228">
        <ele>271.3</ele>
        <time>2017-01-29T13:37:45Z</time>
      </trkpt>
      <trkpt lat="43.52569" lon="6.27241">
        <ele>271.2</ele>
        <time>2017-01-29T13:37:53Z</time>
      </trkpt>
      <trkpt lat="43.5257" lon="6.27254">
        <ele>271</ele>
        <time>2017-01-29T13:38:06Z</time>
      </trkpt>
      <trkpt lat="43.52566" lon="6.27266">
        <ele>270.9</ele>
        <time>2017-01-29T13:38:26Z</time>
      </trkpt>
      <trkpt lat="43.52569" lon="6.27279">
        <ele>270.6</ele>
        <time>2017-01-29T13:39:19Z</time>
      </trkpt>
      <trkpt lat="43.52567" lon="6.27292">
        <ele>270.6</ele>
        <time>2017-01-29T13:39:31Z</time>
      </trkpt>
      <trkpt lat="43.52564" lon="6.27304">
        <ele>270.6</ele>
        <time>2017-01-29T13:39:40Z</time>
      </trkpt>
      <trkpt lat="43.52562" lon="6.27316">
        <ele>270.6</ele>
        <time>2017-01-29T13:39:49Z</time>
      </trkpt>
      <trkpt lat="43.5256" lon="6.2733">
        <ele>270.2</ele>
        <time>2017-01-29T13:39:58Z</time>
      </trkpt>
      <trkpt lat="43.52556" lon="6.27341">
        <ele>270.1</ele>
        <time>2017-01-29T13:40:06Z</time>
      </trkpt>
      <trkpt lat="43.52552" lon="6.27353">
        <ele>270</ele>
        <time>2017-01-29T13:40:14Z</time>
      </trkpt>
      <trkpt lat="43.52549" lon="6.27367">
        <ele>269.7</ele>
        <time>2017-01-29T13:40:24Z</time>
      </trkpt>
      <trkpt lat="43.52544" lon="6.27378">
        <ele>269.6</ele>
        <time>2017-01-29T13:40:32Z</time>
      </trkpt>
      <trkpt lat="43.5254" lon="6.2739">
        <ele>269.5</ele>
        <time>2017-01-29T13:40:38Z</time>
      </trkpt>
      <trkpt lat="43.52538" lon="6.27403">
        <ele>269.4</ele>
        <time>2017-01-29T13:40:45Z</time>
      </trkpt>
      <trkpt lat="43.52537" lon="6.27417">
        <ele>269.3</ele>
        <time>2017-01-29T13:40:54Z</time>
      </trkpt>
      <trkpt lat="43.52531" lon="6.27427">
        <ele>269.1</ele>
        <time>2017-01-29T13:41:02Z</time>
      </trkpt>
      <trkpt lat="43.52527" lon="6.27438">
        <ele>268.9</ele>
        <time>2017-01-29T13:41:10Z</time>
      </trkpt>
      <trkpt lat="43.52525" lon="6.27451">
        <ele>268.7</ele>
        <time>2017-01-29T13:41:20Z</time>
      </trkpt>
      <trkpt lat="43.52521" lon="6.27463">
        <ele>268.6</ele>
        <time>2017-01-29T13:41:28Z</time>
      </trkpt>
      <trkpt lat="43.52518" lon="6.27476">
        <ele>268.3</ele>
        <time>2017-01-29T13:41:39Z</time>
      </trkpt>
      <trkpt lat="43.52515" lon="6.27487">
        <ele>268.2</ele>
        <time>2017-01-29T13:41:47Z</time>
      </trkpt>
      <trkpt lat="43.52511" lon="6.27499">
        <ele>268.1</ele>
        <time>2017-01-29T13:41:57Z</time>
      </trkpt>
      <trkpt lat="43.52507" lon="6.27511">
        <ele>268.1</ele>
        <time>2017-01-29T13:42:04Z</time>
      </trkpt>
      <trkpt lat="43.52505" lon="6.27523">
        <ele>268.1</ele>
        <time>2017-01-29T13:42:12Z</time>
      </trkpt>
      <trkpt lat="43.52502" lon="6.27535">
        <ele>268</ele>
        <time>2017-01-29T13:42:18Z</time>
      </trkpt>
      <trkpt lat="43.52499" lon="6.27547">
        <ele>268</ele>
        <time>2017-01-29T13:42:27Z</time>
      </trkpt>
      <trkpt lat="43.52495" lon="6.2756">
        <ele>267.9</ele>
        <time>2017-01-29T13:42:36Z</time>
      </trkpt>
      <trkpt lat="43.52491" lon="6.27571">
        <ele>267.6</ele>
        <time>2017-01-29T13:42:44Z</time>
      </trkpt>
      <trkpt lat="43.52488" lon="6.27583">
        <ele>267.1</ele>
        <time>2017-01-29T13:42:51Z</time>
      </trkpt>
      <trkpt lat="43.52485" lon="6.27595">
        <ele>266.8</ele>
        <time>2017-01-29T13:43:00Z</time>
      </trkpt>
      <trkpt lat="43.52478" lon="6.27604">
        <ele>266.6</ele>
        <time>2017-01-29T13:43:08Z</time>
      </trkpt>
      <trkpt lat="43.52473" lon="6.27615">
        <ele>266.7</ele>
        <time>2017-01-29T13:43:16Z</time>
      </trkpt>
      <trkpt lat="43.52469" lon="6.27626">
        <ele>266.7</ele>
        <time>2017-01-29T13:43:24Z</time>
      </trkpt>
      <trkpt lat="43.52466" lon="6.27638">
        <ele>266.5</ele>
        <time>2017-01-29T13:43:32Z</time>
      </trkpt>
      <trkpt lat="43.52465" lon="6.27651">
        <ele>266.4</ele>
        <time>2017-01-29T13:43:40Z</time>
      </trkpt>
      <trkpt lat="43.52462" lon="6.27664">
        <ele>266.4</ele>
        <time>2017-01-29T13:43:49Z</time>
      </trkpt>
      <trkpt lat="43.5246" lon="6.27677">
        <ele>266.5</ele>
        <time>2017-01-29T13:43:59Z</time>
      </trkpt>
      <trkpt lat="43.52455" lon="6.27689">
        <ele>266.4</ele>
        <time>2017-01-29T13:44:08Z</time>
      </trkpt>
      <trkpt lat="43.52451" lon="6.27701">
        <ele>266.4</ele>
        <time>2017-01-29T13:44:17Z</time>
      </trkpt>
      <trkpt lat="43.52443" lon="6.27708">
        <ele>266.3</ele>
        <time>2017-01-29T13:44:44Z</time>
      </trkpt>
      <trkpt lat="43.52441" lon="6.27721">
        <ele>266.3</ele>
        <time>2017-01-29T13:44:54Z</time>
      </trkpt>
      <trkpt lat="43.52437" lon="6.27733">
        <ele>266.3</ele>
        <time>2017-01-29T13:45:03Z</time>
      </trkpt>
      <trkpt lat="43.52435" lon="6.27746">
        <ele>266</ele>
        <time>2017-01-29T13:45:13Z</time>
      </trkpt>
      <trkpt lat="43.52431" lon="6.27757">
        <ele>265.9</ele>
        <time>2017-01-29T13:45:23Z</time>
      </trkpt>
      <trkpt lat="43.52427" lon="6.27771">
        <ele>265.9</ele>
        <time>2017-01-29T13:45:32Z</time>
      </trkpt>
      <trkpt lat="43.52421" lon="6.27781">
        <ele>265.9</ele>
        <time>2017-01-29T13:45:48Z</time>
      </trkpt>
      <trkpt lat="43.52418" lon="6.27793">
        <ele>265.9</ele>
        <time>2017-01-29T13:45:56Z</time>
      </trkpt>
      <trkpt lat="43.52415" lon="6.27805">
        <ele>265.9</ele>
        <time>2017-01-29T13:46:04Z</time>
      </trkpt>
      <trkpt lat="43.52413" lon="6.27818">
        <ele>266</ele>
        <time>2017-01-29T13:46:14Z</time>
      </trkpt>
      <trkpt lat="43.5241" lon="6.2783">
        <ele>266</ele>
        <time>2017-01-29T13:46:22Z</time>
      </trkpt>
      <trkpt lat="43.52407" lon="6.27843">
        <ele>266.1</ele>
        <time>2017-01-29T13:46:32Z</time>
      </trkpt>
      <trkpt lat="43.52402" lon="6.27855">
        <ele>266.2</ele>
        <time>2017-01-29T13:46:40Z</time>
      </trkpt>
      <trkpt lat="43.52397" lon="6.27867">
        <ele>266</ele>
        <time>2017-01-29T13:46:49Z</time>
      </trkpt>
      <trkpt lat="43.52393" lon="6.27879">
        <ele>265.8</ele>
        <time>2017-01-29T13:46:59Z</time>
      </trkpt>
      <trkpt lat="43.5239" lon="6.27892">
        <ele>265.8</ele>
        <time>2017-01-29T13:47:09Z</time>
      </trkpt>
      <trkpt lat="43.52387" lon="6.27904">
        <ele>265.8</ele>
        <time>2017-01-29T13:47:21Z</time>
      </trkpt>
      <trkpt lat="43.52382" lon="6.27914">
        <ele>265.8</ele>
        <time>2017-01-29T13:47:29Z</time>
      </trkpt>
      <trkpt lat="43.52376" lon="6.27925">
        <ele>265.8</ele>
        <time>2017-01-29T13:47:39Z</time>
      </trkpt>
      <trkpt lat="43.52372" lon="6.27936">
        <ele>265.8</ele>
        <time>2017-01-29T13:47:48Z</time>
      </trkpt>
      <trkpt lat="43.52368" lon="6.27948">
        <ele>265.8</ele>
        <time>2017-01-29T13:47:57Z</time>
      </trkpt>
      <trkpt lat="43.52365" lon="6.27961">
        <ele>265.9</ele>
        <time>2017-01-29T13:48:06Z</time>
      </trkpt>
      <trkpt lat="43.52361" lon="6.27972">
        <ele>266.2</ele>
        <time>2017-01-29T13:48:16Z</time>
      </trkpt>
      <trkpt lat="43.52353" lon="6.27982">
        <ele>266.1</ele>
        <time>2017-01-29T13:48:25Z</time>
      </trkpt>
      <trkpt lat="43.52347" lon="6.27994">
        <ele>265.9</ele>
        <time>2017-01-29T13:48:34Z</time>
      </trkpt>
      <trkpt lat="43.52342" lon="6.28004">
        <ele>265.9</ele>
        <time>2017-01-29T13:48:41Z</time>
      </trkpt>
      <trkpt lat="43.52336" lon="6.28015">
        <ele>265.8</ele>
        <time>2017-01-29T13:48:49Z</time>
      </trkpt>
      <trkpt lat="43.52331" lon="6.28026">
        <ele>265.7</ele>
        <time>2017-01-29T13:48:59Z</time>
      </trkpt>
      <trkpt lat="43.52327" lon="6.28037">
        <ele>265.7</ele>
        <time>2017-01-29T13:49:08Z</time>
      </trkpt>
      <trkpt lat="43.5232" lon="6.28046">
        <ele>265.7</ele>
        <time>2017-01-29T13:49:16Z</time>
      </trkpt>
      <trkpt lat="43.52314" lon="6.28055">
        <ele>265.7</ele>
        <time>2017-01-29T13:49:23Z</time>
      </trkpt>
      <trkpt lat="43.52308" lon="6.28065">
        <ele>265.6</ele>
        <time>2017-01-29T13:49:33Z</time>
      </trkpt>
      <trkpt lat="43.52301" lon="6.28074">
        <ele>265.5</ele>
        <time>2017-01-29T13:49:42Z</time>
      </trkpt>
      <trkpt lat="43.52295" lon="6.28083">
        <ele>265.5</ele>
        <time>2017-01-29T13:49:50Z</time>
      </trkpt>
      <trkpt lat="43.52287" lon="6.28092">
        <ele>265.5</ele>
        <time>2017-01-29T13:50:00Z</time>
      </trkpt>
      <trkpt lat="43.52281" lon="6.28102">
        <ele>265.5</ele>
        <time>2017-01-29T13:50:07Z</time>
      </trkpt>
      <trkpt lat="43.52274" lon="6.2811">
        <ele>265.5</ele>
        <time>2017-01-29T13:50:17Z</time>
      </trkpt>
      <trkpt lat="43.52269" lon="6.28121">
        <ele>265.5</ele>
        <time>2017-01-29T13:50:29Z</time>
      </trkpt>
      <trkpt lat="43.5226" lon="6.28128">
        <ele>265.5</ele>
        <time>2017-01-29T13:50:37Z</time>
      </trkpt>
      <trkpt lat="43.52255" lon="6.28139">
        <ele>265.4</ele>
        <time>2017-01-29T13:50:46Z</time>
      </trkpt>
      <trkpt lat="43.52245" lon="6.28143">
        <ele>265.3</ele>
        <time>2017-01-29T13:50:55Z</time>
      </trkpt>
      <trkpt lat="43.52236" lon="6.28147">
        <ele>265.3</ele>
        <time>2017-01-29T13:51:00Z</time>
      </trkpt>
      <trkpt lat="43.52238" lon="6.28159">
        <ele>265.2</ele>
        <time>2017-01-29T13:51:10Z</time>
      </trkpt>
      <trkpt lat="43.5223" lon="6.28165">
        <ele>265.1</ele>
        <time>2017-01-29T13:51:21Z</time>
      </trkpt>
      <trkpt lat="43.5222" lon="6.2817">
        <ele>265</ele>
        <time>2017-01-29T13:51:31Z</time>
      </trkpt>
      <trkpt lat="43.52212" lon="6.28179">
        <ele>264.9</ele>
        <time>2017-01-29T13:51:40Z</time>
      </trkpt>
      <trkpt lat="43.5221" lon="6.28191">
        <ele>265.2</ele>
        <time>2017-01-29T13:51:51Z</time>
      </trkpt>
    </trkseg>
  </trk>
</gpx>